<?xml version="1.0" encoding="UTF-8" standalone="no" ?>
<gpx xmlns="http://www.topografix.com/GPX/1/1" xmlns:xsi="http://www.w3.org/2001/XMLSchema-instance" xsi:schemaLocation="http://www.topografix.com/GPX/1/1 http://www.topografix.com/GPX/1/1/gpx.xsd" version="1.1" creator="VisuGPX - https://www.visugpx.com">
  <metadata>
    <name>Crête des Chalanchettes</name>
    <desc><![CDATA[Aller-retour depuis le pont de Lariane, avec les randonneurs de l'ASVF Villefontaine, CAF Lyon, CAF La Mure, ASVEL Ski Montagne]]></desc>
  </metadata>
  <trk>
    <name><![CDATA[Crête des Chalanchettes]]></name>
    <trkseg>
      <trkpt lat="44.71897" lon="6.90423">
        <ele>2025.119</ele>
        <time>2018-03-28T07:39:11Z</time>
      </trkpt>
      <trkpt lat="44.71895" lon="6.90428">
        <ele>2025.095</ele>
        <time>2018-03-28T07:39:16Z</time>
      </trkpt>
      <trkpt lat="44.71893" lon="6.90432">
        <ele>2025.317</ele>
        <time>2018-03-28T07:39:19Z</time>
      </trkpt>
      <trkpt lat="44.71889" lon="6.90442">
        <ele>2025.165</ele>
        <time>2018-03-28T07:39:25Z</time>
      </trkpt>
      <trkpt lat="44.71897" lon="6.90469">
        <ele>2027.473</ele>
        <time>2018-03-28T07:40:35Z</time>
      </trkpt>
      <trkpt lat="44.7185" lon="6.90574">
        <ele>2039.646</ele>
        <time>2018-03-28T07:45:47Z</time>
      </trkpt>
      <trkpt lat="44.71885" lon="6.90754">
        <ele>2049.369</ele>
        <time>2018-03-28T07:47:55Z</time>
      </trkpt>
      <trkpt lat="44.7188" lon="6.90787">
        <ele>2052.346</ele>
        <time>2018-03-28T07:48:26Z</time>
      </trkpt>
      <trkpt lat="44.71879" lon="6.90792">
        <ele>2053.142</ele>
        <time>2018-03-28T07:48:47Z</time>
      </trkpt>
      <trkpt lat="44.71879" lon="6.90814">
        <ele>2055.148</ele>
        <time>2018-03-28T07:49:56Z</time>
      </trkpt>
      <trkpt lat="44.71879" lon="6.90833">
        <ele>2058.219</ele>
        <time>2018-03-28T07:50:16Z</time>
      </trkpt>
      <trkpt lat="44.71882" lon="6.90844">
        <ele>2059.985</ele>
        <time>2018-03-28T07:50:45Z</time>
      </trkpt>
      <trkpt lat="44.71886" lon="6.90859">
        <ele>2062.491</ele>
        <time>2018-03-28T07:51:16Z</time>
      </trkpt>
      <trkpt lat="44.71892" lon="6.90878">
        <ele>2064.988</ele>
        <time>2018-03-28T07:51:38Z</time>
      </trkpt>
      <trkpt lat="44.71892" lon="6.909">
        <ele>2068.012</ele>
        <time>2018-03-28T07:52:02Z</time>
      </trkpt>
      <trkpt lat="44.71894" lon="6.90914">
        <ele>2070.602</ele>
        <time>2018-03-28T07:52:26Z</time>
      </trkpt>
      <trkpt lat="44.71899" lon="6.90939">
        <ele>2075.048</ele>
        <time>2018-03-28T07:52:58Z</time>
      </trkpt>
      <trkpt lat="44.71902" lon="6.90937">
        <ele>2075.698</ele>
        <time>2018-03-28T07:54:19Z</time>
      </trkpt>
      <trkpt lat="44.71915" lon="6.90936">
        <ele>2078.197</ele>
        <time>2018-03-28T07:54:36Z</time>
      </trkpt>
      <trkpt lat="44.71918" lon="6.90937">
        <ele>2080.033</ele>
        <time>2018-03-28T07:54:49Z</time>
      </trkpt>
      <trkpt lat="44.71922" lon="6.90945">
        <ele>2081.145</ele>
        <time>2018-03-28T07:55:07Z</time>
      </trkpt>
      <trkpt lat="44.71922" lon="6.90964">
        <ele>2083.873</ele>
        <time>2018-03-28T07:55:27Z</time>
      </trkpt>
      <trkpt lat="44.71921" lon="6.90986">
        <ele>2086.509</ele>
        <time>2018-03-28T07:55:49Z</time>
      </trkpt>
      <trkpt lat="44.71922" lon="6.91011">
        <ele>2089.882</ele>
        <time>2018-03-28T07:56:15Z</time>
      </trkpt>
      <trkpt lat="44.71924" lon="6.91026">
        <ele>2093.146</ele>
        <time>2018-03-28T07:56:33Z</time>
      </trkpt>
      <trkpt lat="44.71927" lon="6.91026">
        <ele>2093.847</ele>
        <time>2018-03-28T07:56:48Z</time>
      </trkpt>
      <trkpt lat="44.71935" lon="6.91016">
        <ele>2096.665</ele>
        <time>2018-03-28T07:57:07Z</time>
      </trkpt>
      <trkpt lat="44.71941" lon="6.91012">
        <ele>2099.039</ele>
        <time>2018-03-28T07:57:20Z</time>
      </trkpt>
      <trkpt lat="44.71949" lon="6.91008">
        <ele>2101.943</ele>
        <time>2018-03-28T07:57:37Z</time>
      </trkpt>
      <trkpt lat="44.71955" lon="6.91015">
        <ele>2103.749</ele>
        <time>2018-03-28T07:57:55Z</time>
      </trkpt>
      <trkpt lat="44.71959" lon="6.91033">
        <ele>2107.145</ele>
        <time>2018-03-28T07:58:18Z</time>
      </trkpt>
      <trkpt lat="44.71962" lon="6.91053">
        <ele>2110.402</ele>
        <time>2018-03-28T07:58:41Z</time>
      </trkpt>
      <trkpt lat="44.71963" lon="6.91071">
        <ele>2113.096</ele>
        <time>2018-03-28T07:59:02Z</time>
      </trkpt>
      <trkpt lat="44.71965" lon="6.91081">
        <ele>2115.956</ele>
        <time>2018-03-28T07:59:24Z</time>
      </trkpt>
      <trkpt lat="44.7197" lon="6.91086">
        <ele>2119.344</ele>
        <time>2018-03-28T07:59:39Z</time>
      </trkpt>
      <trkpt lat="44.71976" lon="6.91087">
        <ele>2120.055</ele>
        <time>2018-03-28T07:59:48Z</time>
      </trkpt>
      <trkpt lat="44.71982" lon="6.91097">
        <ele>2122.236</ele>
        <time>2018-03-28T08:00:03Z</time>
      </trkpt>
      <trkpt lat="44.71985" lon="6.91103">
        <ele>2123.119</ele>
        <time>2018-03-28T08:00:23Z</time>
      </trkpt>
      <trkpt lat="44.71987" lon="6.91115">
        <ele>2125.607</ele>
        <time>2018-03-28T08:00:41Z</time>
      </trkpt>
      <trkpt lat="44.71987" lon="6.91127">
        <ele>2128.619</ele>
        <time>2018-03-28T08:00:58Z</time>
      </trkpt>
      <trkpt lat="44.71992" lon="6.91138">
        <ele>2132.354</ele>
        <time>2018-03-28T08:01:16Z</time>
      </trkpt>
      <trkpt lat="44.72002" lon="6.91139">
        <ele>2135.721</ele>
        <time>2018-03-28T08:01:35Z</time>
      </trkpt>
      <trkpt lat="44.72009" lon="6.91141">
        <ele>2138.828</ele>
        <time>2018-03-28T08:01:49Z</time>
      </trkpt>
      <trkpt lat="44.72015" lon="6.91147">
        <ele>2140.162</ele>
        <time>2018-03-28T08:02:09Z</time>
      </trkpt>
      <trkpt lat="44.72015" lon="6.91159">
        <ele>2142.737</ele>
        <time>2018-03-28T08:02:27Z</time>
      </trkpt>
      <trkpt lat="44.72013" lon="6.91176">
        <ele>2145.595</ele>
        <time>2018-03-28T08:02:46Z</time>
      </trkpt>
      <trkpt lat="44.72018" lon="6.9118">
        <ele>2148.758</ele>
        <time>2018-03-28T08:03:03Z</time>
      </trkpt>
      <trkpt lat="44.72028" lon="6.91177">
        <ele>2151.886</ele>
        <time>2018-03-28T08:03:25Z</time>
      </trkpt>
      <trkpt lat="44.72035" lon="6.91174">
        <ele>2154.185</ele>
        <time>2018-03-28T08:03:43Z</time>
      </trkpt>
      <trkpt lat="44.72037" lon="6.91172">
        <ele>2155.226</ele>
        <time>2018-03-28T08:03:49Z</time>
      </trkpt>
      <trkpt lat="44.72043" lon="6.9117">
        <ele>2156.922</ele>
        <time>2018-03-28T08:04:02Z</time>
      </trkpt>
      <trkpt lat="44.7205" lon="6.91168">
        <ele>2158.546</ele>
        <time>2018-03-28T08:04:22Z</time>
      </trkpt>
      <trkpt lat="44.72049" lon="6.9118">
        <ele>2161.222</ele>
        <time>2018-03-28T08:05:11Z</time>
      </trkpt>
      <trkpt lat="44.72049" lon="6.91198">
        <ele>2164.314</ele>
        <time>2018-03-28T08:05:35Z</time>
      </trkpt>
      <trkpt lat="44.72052" lon="6.91205">
        <ele>2166.782</ele>
        <time>2018-03-28T08:05:54Z</time>
      </trkpt>
      <trkpt lat="44.72053" lon="6.91223">
        <ele>2168.82</ele>
        <time>2018-03-28T08:07:07Z</time>
      </trkpt>
      <trkpt lat="44.72056" lon="6.91245">
        <ele>2171.969</ele>
        <time>2018-03-28T08:07:31Z</time>
      </trkpt>
      <trkpt lat="44.72055" lon="6.91252">
        <ele>2172.938</ele>
        <time>2018-03-28T08:07:41Z</time>
      </trkpt>
      <trkpt lat="44.72053" lon="6.91272">
        <ele>2176.349</ele>
        <time>2018-03-28T08:08:03Z</time>
      </trkpt>
      <trkpt lat="44.72054" lon="6.9129">
        <ele>2179.801</ele>
        <time>2018-03-28T08:08:29Z</time>
      </trkpt>
      <trkpt lat="44.72059" lon="6.91293">
        <ele>2183.097</ele>
        <time>2018-03-28T08:08:43Z</time>
      </trkpt>
      <trkpt lat="44.72063" lon="6.91293">
        <ele>2185.366</ele>
        <time>2018-03-28T08:09:01Z</time>
      </trkpt>
      <trkpt lat="44.72067" lon="6.91293">
        <ele>2187.135</ele>
        <time>2018-03-28T08:09:12Z</time>
      </trkpt>
      <trkpt lat="44.72074" lon="6.91293">
        <ele>2189.049</ele>
        <time>2018-03-28T08:09:29Z</time>
      </trkpt>
      <trkpt lat="44.72077" lon="6.91293">
        <ele>2189.78</ele>
        <time>2018-03-28T08:09:37Z</time>
      </trkpt>
      <trkpt lat="44.72086" lon="6.91291">
        <ele>2192.444</ele>
        <time>2018-03-28T08:09:54Z</time>
      </trkpt>
      <trkpt lat="44.72092" lon="6.91299">
        <ele>2194.43</ele>
        <time>2018-03-28T08:10:15Z</time>
      </trkpt>
      <trkpt lat="44.72093" lon="6.91312">
        <ele>2195.967</ele>
        <time>2018-03-28T08:10:35Z</time>
      </trkpt>
      <trkpt lat="44.72092" lon="6.91327">
        <ele>2199.471</ele>
        <time>2018-03-28T08:10:59Z</time>
      </trkpt>
      <trkpt lat="44.72092" lon="6.91339">
        <ele>2202.018</ele>
        <time>2018-03-28T08:11:20Z</time>
      </trkpt>
      <trkpt lat="44.72095" lon="6.91341">
        <ele>2204.786</ele>
        <time>2018-03-28T08:11:40Z</time>
      </trkpt>
      <trkpt lat="44.72101" lon="6.91336">
        <ele>2207.47</ele>
        <time>2018-03-28T08:12:02Z</time>
      </trkpt>
      <trkpt lat="44.72106" lon="6.91334">
        <ele>2209.993</ele>
        <time>2018-03-28T08:12:20Z</time>
      </trkpt>
      <trkpt lat="44.72115" lon="6.9133">
        <ele>2212.29</ele>
        <time>2018-03-28T08:12:45Z</time>
      </trkpt>
      <trkpt lat="44.72114" lon="6.91333">
        <ele>2213.107</ele>
        <time>2018-03-28T08:12:57Z</time>
      </trkpt>
      <trkpt lat="44.72113" lon="6.91347">
        <ele>2216.4</ele>
        <time>2018-03-28T08:13:18Z</time>
      </trkpt>
      <trkpt lat="44.72115" lon="6.91363">
        <ele>2218.486</ele>
        <time>2018-03-28T08:13:48Z</time>
      </trkpt>
      <trkpt lat="44.72117" lon="6.91362">
        <ele>2220.707</ele>
        <time>2018-03-28T08:13:59Z</time>
      </trkpt>
      <trkpt lat="44.72121" lon="6.91361">
        <ele>2222.48</ele>
        <time>2018-03-28T08:14:12Z</time>
      </trkpt>
      <trkpt lat="44.72126" lon="6.91358">
        <ele>2224.881</ele>
        <time>2018-03-28T08:14:27Z</time>
      </trkpt>
      <trkpt lat="44.72128" lon="6.91357">
        <ele>2226.302</ele>
        <time>2018-03-28T08:14:41Z</time>
      </trkpt>
      <trkpt lat="44.72133" lon="6.91352">
        <ele>2228.03</ele>
        <time>2018-03-28T08:14:58Z</time>
      </trkpt>
      <trkpt lat="44.72137" lon="6.91347">
        <ele>2230.01</ele>
        <time>2018-03-28T08:15:12Z</time>
      </trkpt>
      <trkpt lat="44.72142" lon="6.91341">
        <ele>2232.513</ele>
        <time>2018-03-28T08:15:31Z</time>
      </trkpt>
      <trkpt lat="44.72148" lon="6.91335">
        <ele>2234.42</ele>
        <time>2018-03-28T08:15:49Z</time>
      </trkpt>
      <trkpt lat="44.72155" lon="6.91332">
        <ele>2236.93</ele>
        <time>2018-03-28T08:16:07Z</time>
      </trkpt>
      <trkpt lat="44.72169" lon="6.91326">
        <ele>2240.361</ele>
        <time>2018-03-28T08:16:47Z</time>
      </trkpt>
      <trkpt lat="44.72173" lon="6.91336">
        <ele>2242.641</ele>
        <time>2018-03-28T08:17:37Z</time>
      </trkpt>
      <trkpt lat="44.72174" lon="6.91353">
        <ele>2245.705</ele>
        <time>2018-03-28T08:17:59Z</time>
      </trkpt>
      <trkpt lat="44.72179" lon="6.91373">
        <ele>2248.911</ele>
        <time>2018-03-28T08:18:24Z</time>
      </trkpt>
      <trkpt lat="44.7218" lon="6.91388">
        <ele>2252.347</ele>
        <time>2018-03-28T08:18:43Z</time>
      </trkpt>
      <trkpt lat="44.72183" lon="6.91407">
        <ele>2255.386</ele>
        <time>2018-03-28T08:19:10Z</time>
      </trkpt>
      <trkpt lat="44.72184" lon="6.91424">
        <ele>2258.415</ele>
        <time>2018-03-28T08:19:34Z</time>
      </trkpt>
      <trkpt lat="44.72187" lon="6.9143">
        <ele>2261.913</ele>
        <time>2018-03-28T08:19:48Z</time>
      </trkpt>
      <trkpt lat="44.72198" lon="6.91428">
        <ele>2265.048</ele>
        <time>2018-03-28T08:20:15Z</time>
      </trkpt>
      <trkpt lat="44.72205" lon="6.91424">
        <ele>2268.1</ele>
        <time>2018-03-28T08:20:34Z</time>
      </trkpt>
      <trkpt lat="44.72216" lon="6.91413">
        <ele>2271.403</ele>
        <time>2018-03-28T08:21:01Z</time>
      </trkpt>
      <trkpt lat="44.72219" lon="6.91418">
        <ele>2273.22</ele>
        <time>2018-03-28T08:21:25Z</time>
      </trkpt>
      <trkpt lat="44.7222" lon="6.91429">
        <ele>2274.745</ele>
        <time>2018-03-28T08:22:38Z</time>
      </trkpt>
      <trkpt lat="44.72224" lon="6.91446">
        <ele>2278.038</ele>
        <time>2018-03-28T08:23:00Z</time>
      </trkpt>
      <trkpt lat="44.72228" lon="6.91462">
        <ele>2281.223</ele>
        <time>2018-03-28T08:23:20Z</time>
      </trkpt>
      <trkpt lat="44.72227" lon="6.91481">
        <ele>2284.499</ele>
        <time>2018-03-28T08:23:44Z</time>
      </trkpt>
      <trkpt lat="44.7223" lon="6.91488">
        <ele>2287.792</ele>
        <time>2018-03-28T08:24:04Z</time>
      </trkpt>
      <trkpt lat="44.72238" lon="6.91489">
        <ele>2290.798</ele>
        <time>2018-03-28T08:24:32Z</time>
      </trkpt>
      <trkpt lat="44.72247" lon="6.91483">
        <ele>2294.137</ele>
        <time>2018-03-28T08:24:57Z</time>
      </trkpt>
      <trkpt lat="44.72252" lon="6.91497">
        <ele>2297.091</ele>
        <time>2018-03-28T08:25:20Z</time>
      </trkpt>
      <trkpt lat="44.72252" lon="6.91513">
        <ele>2300.104</ele>
        <time>2018-03-28T08:25:44Z</time>
      </trkpt>
      <trkpt lat="44.72252" lon="6.91529">
        <ele>2303.129</ele>
        <time>2018-03-28T08:26:03Z</time>
      </trkpt>
      <trkpt lat="44.72251" lon="6.91544">
        <ele>2306.136</ele>
        <time>2018-03-28T08:26:19Z</time>
      </trkpt>
      <trkpt lat="44.72252" lon="6.91554">
        <ele>2308.399</ele>
        <time>2018-03-28T08:26:33Z</time>
      </trkpt>
      <trkpt lat="44.72256" lon="6.91559">
        <ele>2311.808</ele>
        <time>2018-03-28T08:26:49Z</time>
      </trkpt>
      <trkpt lat="44.72266" lon="6.91557">
        <ele>2315.254</ele>
        <time>2018-03-28T08:27:10Z</time>
      </trkpt>
      <trkpt lat="44.72277" lon="6.91558">
        <ele>2318.374</ele>
        <time>2018-03-28T08:33:16Z</time>
      </trkpt>
      <trkpt lat="44.72281" lon="6.91554">
        <ele>2318.939</ele>
        <time>2018-03-28T08:34:23Z</time>
      </trkpt>
      <trkpt lat="44.72292" lon="6.91543">
        <ele>2321.926</ele>
        <time>2018-03-28T08:34:48Z</time>
      </trkpt>
      <trkpt lat="44.72298" lon="6.91537">
        <ele>2323.854</ele>
        <time>2018-03-28T08:35:07Z</time>
      </trkpt>
      <trkpt lat="44.72307" lon="6.91533">
        <ele>2326.227</ele>
        <time>2018-03-28T08:35:32Z</time>
      </trkpt>
      <trkpt lat="44.72314" lon="6.91522">
        <ele>2329.456</ele>
        <time>2018-03-28T08:35:51Z</time>
      </trkpt>
      <trkpt lat="44.72323" lon="6.91516">
        <ele>2332.573</ele>
        <time>2018-03-28T08:36:14Z</time>
      </trkpt>
      <trkpt lat="44.7233" lon="6.91507">
        <ele>2335.614</ele>
        <time>2018-03-28T08:36:35Z</time>
      </trkpt>
      <trkpt lat="44.72341" lon="6.91507">
        <ele>2338.895</ele>
        <time>2018-03-28T08:36:58Z</time>
      </trkpt>
      <trkpt lat="44.72351" lon="6.91518">
        <ele>2342.112</ele>
        <time>2018-03-28T08:37:21Z</time>
      </trkpt>
      <trkpt lat="44.72358" lon="6.91528">
        <ele>2345.335</ele>
        <time>2018-03-28T08:37:44Z</time>
      </trkpt>
      <trkpt lat="44.72361" lon="6.91548">
        <ele>2348.525</ele>
        <time>2018-03-28T08:38:10Z</time>
      </trkpt>
      <trkpt lat="44.72364" lon="6.91562">
        <ele>2351.56</ele>
        <time>2018-03-28T08:38:30Z</time>
      </trkpt>
      <trkpt lat="44.72361" lon="6.91575">
        <ele>2354.458</ele>
        <time>2018-03-28T08:38:56Z</time>
      </trkpt>
      <trkpt lat="44.72362" lon="6.91583">
        <ele>2356.872</ele>
        <time>2018-03-28T08:39:13Z</time>
      </trkpt>
      <trkpt lat="44.72372" lon="6.91588">
        <ele>2359.998</ele>
        <time>2018-03-28T08:39:37Z</time>
      </trkpt>
      <trkpt lat="44.72374" lon="6.9159">
        <ele>2360.89</ele>
        <time>2018-03-28T08:39:53Z</time>
      </trkpt>
      <trkpt lat="44.72383" lon="6.916">
        <ele>2363.413</ele>
        <time>2018-03-28T08:41:19Z</time>
      </trkpt>
      <trkpt lat="44.72383" lon="6.91615">
        <ele>2366.465</ele>
        <time>2018-03-28T08:41:38Z</time>
      </trkpt>
      <trkpt lat="44.72383" lon="6.91624">
        <ele>2369.461</ele>
        <time>2018-03-28T08:41:54Z</time>
      </trkpt>
      <trkpt lat="44.72382" lon="6.91633">
        <ele>2371.361</ele>
        <time>2018-03-28T08:42:05Z</time>
      </trkpt>
      <trkpt lat="44.72381" lon="6.91645">
        <ele>2373.858</ele>
        <time>2018-03-28T08:42:21Z</time>
      </trkpt>
      <trkpt lat="44.7238" lon="6.9165">
        <ele>2374.79</ele>
        <time>2018-03-28T08:42:58Z</time>
      </trkpt>
      <trkpt lat="44.72379" lon="6.91662">
        <ele>2377.197</ele>
        <time>2018-03-28T08:43:35Z</time>
      </trkpt>
      <trkpt lat="44.7238" lon="6.91675">
        <ele>2380.23</ele>
        <time>2018-03-28T08:43:55Z</time>
      </trkpt>
      <trkpt lat="44.72385" lon="6.91691">
        <ele>2383.506</ele>
        <time>2018-03-28T08:44:16Z</time>
      </trkpt>
      <trkpt lat="44.72382" lon="6.91703">
        <ele>2386.501</ele>
        <time>2018-03-28T08:44:32Z</time>
      </trkpt>
      <trkpt lat="44.72384" lon="6.91713">
        <ele>2388.334</ele>
        <time>2018-03-28T08:44:46Z</time>
      </trkpt>
      <trkpt lat="44.72391" lon="6.91729">
        <ele>2391.547</ele>
        <time>2018-03-28T08:45:08Z</time>
      </trkpt>
      <trkpt lat="44.72392" lon="6.91742">
        <ele>2394.557</ele>
        <time>2018-03-28T08:45:27Z</time>
      </trkpt>
      <trkpt lat="44.72398" lon="6.91755">
        <ele>2396.75</ele>
        <time>2018-03-28T08:45:44Z</time>
      </trkpt>
      <trkpt lat="44.72403" lon="6.91764">
        <ele>2399.785</ele>
        <time>2018-03-28T08:46:09Z</time>
      </trkpt>
      <trkpt lat="44.72413" lon="6.91779">
        <ele>2402.645</ele>
        <time>2018-03-28T08:46:51Z</time>
      </trkpt>
      <trkpt lat="44.72418" lon="6.91793">
        <ele>2405.666</ele>
        <time>2018-03-28T08:47:13Z</time>
      </trkpt>
      <trkpt lat="44.72432" lon="6.91792">
        <ele>2408.716</ele>
        <time>2018-03-28T08:47:35Z</time>
      </trkpt>
      <trkpt lat="44.72442" lon="6.9179">
        <ele>2411.781</ele>
        <time>2018-03-28T08:47:53Z</time>
      </trkpt>
      <trkpt lat="44.72451" lon="6.91795">
        <ele>2414.782</ele>
        <time>2018-03-28T08:48:14Z</time>
      </trkpt>
      <trkpt lat="44.72459" lon="6.91807">
        <ele>2417.484</ele>
        <time>2018-03-28T08:48:36Z</time>
      </trkpt>
      <trkpt lat="44.72464" lon="6.91817">
        <ele>2419.652</ele>
        <time>2018-03-28T08:48:52Z</time>
      </trkpt>
      <trkpt lat="44.7247" lon="6.91831">
        <ele>2422.845</ele>
        <time>2018-03-28T08:49:14Z</time>
      </trkpt>
      <trkpt lat="44.7248" lon="6.91847">
        <ele>2426.388</ele>
        <time>2018-03-28T08:49:37Z</time>
      </trkpt>
      <trkpt lat="44.72488" lon="6.91858">
        <ele>2428.999</ele>
        <time>2018-03-28T08:49:58Z</time>
      </trkpt>
      <trkpt lat="44.72497" lon="6.9187">
        <ele>2431.957</ele>
        <time>2018-03-28T08:50:23Z</time>
      </trkpt>
      <trkpt lat="44.72503" lon="6.91872">
        <ele>2434.612</ele>
        <time>2018-03-28T08:51:02Z</time>
      </trkpt>
      <trkpt lat="44.72513" lon="6.91876">
        <ele>2438.024</ele>
        <time>2018-03-28T08:52:59Z</time>
      </trkpt>
      <trkpt lat="44.72516" lon="6.91886">
        <ele>2441.221</ele>
        <time>2018-03-28T08:53:15Z</time>
      </trkpt>
      <trkpt lat="44.72516" lon="6.91902">
        <ele>2444.833</ele>
        <time>2018-03-28T08:53:36Z</time>
      </trkpt>
      <trkpt lat="44.72517" lon="6.91916">
        <ele>2447.97</ele>
        <time>2018-03-28T08:53:57Z</time>
      </trkpt>
      <trkpt lat="44.72532" lon="6.91918">
        <ele>2451.063</ele>
        <time>2018-03-28T08:54:18Z</time>
      </trkpt>
      <trkpt lat="44.72538" lon="6.91923">
        <ele>2453.542</ele>
        <time>2018-03-28T08:54:36Z</time>
      </trkpt>
      <trkpt lat="44.72536" lon="6.9193">
        <ele>2455.697</ele>
        <time>2018-03-28T08:54:48Z</time>
      </trkpt>
      <trkpt lat="44.72534" lon="6.91941">
        <ele>2457.431</ele>
        <time>2018-03-28T08:55:03Z</time>
      </trkpt>
      <trkpt lat="44.72528" lon="6.91958">
        <ele>2460.127</ele>
        <time>2018-03-28T08:55:27Z</time>
      </trkpt>
      <trkpt lat="44.72528" lon="6.91971">
        <ele>2462.136</ele>
        <time>2018-03-28T08:55:48Z</time>
      </trkpt>
      <trkpt lat="44.72529" lon="6.91982">
        <ele>2464.677</ele>
        <time>2018-03-28T08:56:06Z</time>
      </trkpt>
      <trkpt lat="44.72533" lon="6.91999">
        <ele>2467.097</ele>
        <time>2018-03-28T08:56:31Z</time>
      </trkpt>
      <trkpt lat="44.72542" lon="6.92011">
        <ele>2469.894</ele>
        <time>2018-03-28T08:56:53Z</time>
      </trkpt>
      <trkpt lat="44.72551" lon="6.92024">
        <ele>2472.047</ele>
        <time>2018-03-28T08:57:15Z</time>
      </trkpt>
      <trkpt lat="44.72553" lon="6.92026">
        <ele>2473.097</ele>
        <time>2018-03-28T08:57:19Z</time>
      </trkpt>
      <trkpt lat="44.7256" lon="6.92032">
        <ele>2473.967</ele>
        <time>2018-03-28T08:57:34Z</time>
      </trkpt>
      <trkpt lat="44.72565" lon="6.92024">
        <ele>2476.958</ele>
        <time>2018-03-28T08:58:14Z</time>
      </trkpt>
      <trkpt lat="44.72573" lon="6.92023">
        <ele>2480.248</ele>
        <time>2018-03-28T08:58:32Z</time>
      </trkpt>
      <trkpt lat="44.72581" lon="6.92031">
        <ele>2481.544</ele>
        <time>2018-03-28T08:58:49Z</time>
      </trkpt>
      <trkpt lat="44.72587" lon="6.92037">
        <ele>2483.59</ele>
        <time>2018-03-28T08:59:05Z</time>
      </trkpt>
      <trkpt lat="44.72593" lon="6.92046">
        <ele>2484.625</ele>
        <time>2018-03-28T08:59:18Z</time>
      </trkpt>
      <trkpt lat="44.72591" lon="6.92054">
        <ele>2486.884</ele>
        <time>2018-03-28T08:59:34Z</time>
      </trkpt>
      <trkpt lat="44.72589" lon="6.92065">
        <ele>2489.302</ele>
        <time>2018-03-28T08:59:54Z</time>
      </trkpt>
      <trkpt lat="44.7259" lon="6.92079">
        <ele>2491.349</ele>
        <time>2018-03-28T09:00:22Z</time>
      </trkpt>
      <trkpt lat="44.7259" lon="6.92093">
        <ele>2494.495</ele>
        <time>2018-03-28T09:00:44Z</time>
      </trkpt>
      <trkpt lat="44.72591" lon="6.921">
        <ele>2496.324</ele>
        <time>2018-03-28T09:01:03Z</time>
      </trkpt>
      <trkpt lat="44.72593" lon="6.92111">
        <ele>2499.012</ele>
        <time>2018-03-28T09:01:24Z</time>
      </trkpt>
      <trkpt lat="44.72594" lon="6.92118">
        <ele>2500.239</ele>
        <time>2018-03-28T09:01:40Z</time>
      </trkpt>
      <trkpt lat="44.72597" lon="6.92128">
        <ele>2502.622</ele>
        <time>2018-03-28T09:02:01Z</time>
      </trkpt>
      <trkpt lat="44.72601" lon="6.92134">
        <ele>2503.623</ele>
        <time>2018-03-28T09:02:49Z</time>
      </trkpt>
      <trkpt lat="44.72599" lon="6.92143">
        <ele>2505.73</ele>
        <time>2018-03-28T09:03:56Z</time>
      </trkpt>
      <trkpt lat="44.72605" lon="6.92152">
        <ele>2507.207</ele>
        <time>2018-03-28T09:04:08Z</time>
      </trkpt>
      <trkpt lat="44.72609" lon="6.92155">
        <ele>2509.004</ele>
        <time>2018-03-28T09:04:20Z</time>
      </trkpt>
      <trkpt lat="44.72617" lon="6.9215">
        <ele>2511.257</ele>
        <time>2018-03-28T09:04:37Z</time>
      </trkpt>
      <trkpt lat="44.72623" lon="6.9214">
        <ele>2514.038</ele>
        <time>2018-03-28T09:05:01Z</time>
      </trkpt>
      <trkpt lat="44.7263" lon="6.9213">
        <ele>2517.032</ele>
        <time>2018-03-28T09:05:26Z</time>
      </trkpt>
      <trkpt lat="44.72639" lon="6.92117">
        <ele>2520.206</ele>
        <time>2018-03-28T09:05:50Z</time>
      </trkpt>
      <trkpt lat="44.72647" lon="6.92108">
        <ele>2523.288</ele>
        <time>2018-03-28T09:06:13Z</time>
      </trkpt>
      <trkpt lat="44.72652" lon="6.92109">
        <ele>2525.804</ele>
        <time>2018-03-28T09:06:30Z</time>
      </trkpt>
      <trkpt lat="44.72651" lon="6.9212">
        <ele>2529.138</ele>
        <time>2018-03-28T09:06:50Z</time>
      </trkpt>
      <trkpt lat="44.72654" lon="6.92133">
        <ele>2532.24</ele>
        <time>2018-03-28T09:07:11Z</time>
      </trkpt>
      <trkpt lat="44.72655" lon="6.92138">
        <ele>2533.574</ele>
        <time>2018-03-28T09:07:25Z</time>
      </trkpt>
      <trkpt lat="44.72655" lon="6.92145">
        <ele>2536.716</ele>
        <time>2018-03-28T09:08:07Z</time>
      </trkpt>
      <trkpt lat="44.72663" lon="6.92159">
        <ele>2539.245</ele>
        <time>2018-03-28T09:08:25Z</time>
      </trkpt>
      <trkpt lat="44.72669" lon="6.92168">
        <ele>2542.314</ele>
        <time>2018-03-28T09:08:43Z</time>
      </trkpt>
      <trkpt lat="44.72676" lon="6.92176">
        <ele>2544.96</ele>
        <time>2018-03-28T09:09:02Z</time>
      </trkpt>
      <trkpt lat="44.72682" lon="6.92187">
        <ele>2547.397</ele>
        <time>2018-03-28T09:09:18Z</time>
      </trkpt>
      <trkpt lat="44.72684" lon="6.92191">
        <ele>2548.55</ele>
        <time>2018-03-28T09:09:29Z</time>
      </trkpt>
      <trkpt lat="44.72692" lon="6.92199">
        <ele>2550.783</ele>
        <time>2018-03-28T09:09:47Z</time>
      </trkpt>
      <trkpt lat="44.72695" lon="6.92204">
        <ele>2553.367</ele>
        <time>2018-03-28T09:10:05Z</time>
      </trkpt>
      <trkpt lat="44.72704" lon="6.92215">
        <ele>2555.393</ele>
        <time>2018-03-28T09:10:24Z</time>
      </trkpt>
      <trkpt lat="44.72708" lon="6.9222">
        <ele>2556.82</ele>
        <time>2018-03-28T09:10:35Z</time>
      </trkpt>
      <trkpt lat="44.72713" lon="6.92226">
        <ele>2558.07</ele>
        <time>2018-03-28T09:10:49Z</time>
      </trkpt>
      <trkpt lat="44.72714" lon="6.92231">
        <ele>2559.531</ele>
        <time>2018-03-28T09:11:01Z</time>
      </trkpt>
      <trkpt lat="44.72715" lon="6.92235">
        <ele>2561.11</ele>
        <time>2018-03-28T09:11:13Z</time>
      </trkpt>
      <trkpt lat="44.72718" lon="6.9224">
        <ele>2562.078</ele>
        <time>2018-03-28T09:11:20Z</time>
      </trkpt>
      <trkpt lat="44.72722" lon="6.92245">
        <ele>2563.364</ele>
        <time>2018-03-28T09:11:31Z</time>
      </trkpt>
      <trkpt lat="44.72726" lon="6.92251">
        <ele>2565.188</ele>
        <time>2018-03-28T09:11:46Z</time>
      </trkpt>
      <trkpt lat="44.72727" lon="6.92253">
        <ele>2565.565</ele>
        <time>2018-03-28T09:11:50Z</time>
      </trkpt>
      <trkpt lat="44.7273" lon="6.92256">
        <ele>2566.262</ele>
        <time>2018-03-28T09:11:55Z</time>
      </trkpt>
      <trkpt lat="44.7273" lon="6.92254">
        <ele>2569.982</ele>
        <time>2018-03-28T09:19:13Z</time>
      </trkpt>
      <trkpt lat="44.72734" lon="6.92248">
        <ele>2572.015</ele>
        <time>2018-03-28T09:20:30Z</time>
      </trkpt>
      <trkpt lat="44.72744" lon="6.92243">
        <ele>2575.2</ele>
        <time>2018-03-28T09:20:48Z</time>
      </trkpt>
      <trkpt lat="44.72753" lon="6.9224">
        <ele>2578.555</ele>
        <time>2018-03-28T09:21:09Z</time>
      </trkpt>
      <trkpt lat="44.72761" lon="6.92236">
        <ele>2581.719</ele>
        <time>2018-03-28T09:21:28Z</time>
      </trkpt>
      <trkpt lat="44.72771" lon="6.92233">
        <ele>2585.305</ele>
        <time>2018-03-28T09:21:48Z</time>
      </trkpt>
      <trkpt lat="44.72781" lon="6.9224">
        <ele>2588.773</ele>
        <time>2018-03-28T09:22:07Z</time>
      </trkpt>
      <trkpt lat="44.72793" lon="6.92247">
        <ele>2591.475</ele>
        <time>2018-03-28T09:22:33Z</time>
      </trkpt>
      <trkpt lat="44.72802" lon="6.92255">
        <ele>2593.698</ele>
        <time>2018-03-28T09:22:52Z</time>
      </trkpt>
      <trkpt lat="44.72808" lon="6.92263">
        <ele>2596.023</ele>
        <time>2018-03-28T09:23:10Z</time>
      </trkpt>
      <trkpt lat="44.72816" lon="6.92275">
        <ele>2598.282</ele>
        <time>2018-03-28T09:23:31Z</time>
      </trkpt>
      <trkpt lat="44.72823" lon="6.92288">
        <ele>2600.638</ele>
        <time>2018-03-28T09:23:50Z</time>
      </trkpt>
      <trkpt lat="44.72826" lon="6.92296">
        <ele>2602.38</ele>
        <time>2018-03-28T09:24:06Z</time>
      </trkpt>
      <trkpt lat="44.72834" lon="6.92305">
        <ele>2605.624</ele>
        <time>2018-03-28T09:24:23Z</time>
      </trkpt>
      <trkpt lat="44.72837" lon="6.92319">
        <ele>2609.708</ele>
        <time>2018-03-28T09:25:02Z</time>
      </trkpt>
      <trkpt lat="44.72842" lon="6.92332">
        <ele>2612.848</ele>
        <time>2018-03-28T09:25:19Z</time>
      </trkpt>
      <trkpt lat="44.72846" lon="6.92342">
        <ele>2614.833</ele>
        <time>2018-03-28T09:25:37Z</time>
      </trkpt>
      <trkpt lat="44.72849" lon="6.92353">
        <ele>2617.99</ele>
        <time>2018-03-28T09:25:59Z</time>
      </trkpt>
      <trkpt lat="44.72852" lon="6.92365">
        <ele>2620.105</ele>
        <time>2018-03-28T09:26:27Z</time>
      </trkpt>
      <trkpt lat="44.72856" lon="6.9236">
        <ele>2623.405</ele>
        <time>2018-03-28T09:26:43Z</time>
      </trkpt>
      <trkpt lat="44.72862" lon="6.92354">
        <ele>2626.743</ele>
        <time>2018-03-28T09:27:03Z</time>
      </trkpt>
      <trkpt lat="44.7287" lon="6.92352">
        <ele>2630.01</ele>
        <time>2018-03-28T09:27:22Z</time>
      </trkpt>
      <trkpt lat="44.72878" lon="6.92353">
        <ele>2633.004</ele>
        <time>2018-03-28T09:27:43Z</time>
      </trkpt>
      <trkpt lat="44.72881" lon="6.92367">
        <ele>2636.552</ele>
        <time>2018-03-28T09:28:06Z</time>
      </trkpt>
      <trkpt lat="44.72882" lon="6.92375">
        <ele>2639.52</ele>
        <time>2018-03-28T09:28:23Z</time>
      </trkpt>
      <trkpt lat="44.72884" lon="6.9238">
        <ele>2641.431</ele>
        <time>2018-03-28T09:28:36Z</time>
      </trkpt>
      <trkpt lat="44.72884" lon="6.92386">
        <ele>2643.651</ele>
        <time>2018-03-28T09:28:52Z</time>
      </trkpt>
      <trkpt lat="44.72888" lon="6.92386">
        <ele>2645.364</ele>
        <time>2018-03-28T09:29:11Z</time>
      </trkpt>
      <trkpt lat="44.72896" lon="6.92383">
        <ele>2648.426</ele>
        <time>2018-03-28T09:29:29Z</time>
      </trkpt>
      <trkpt lat="44.72902" lon="6.92376">
        <ele>2651.719</ele>
        <time>2018-03-28T09:29:46Z</time>
      </trkpt>
      <trkpt lat="44.72907" lon="6.92372">
        <ele>2654.442</ele>
        <time>2018-03-28T09:30:16Z</time>
      </trkpt>
      <trkpt lat="44.72915" lon="6.92369">
        <ele>2656.587</ele>
        <time>2018-03-28T09:30:40Z</time>
      </trkpt>
      <trkpt lat="44.72912" lon="6.92374">
        <ele>2658.649</ele>
        <time>2018-03-28T09:30:59Z</time>
      </trkpt>
      <trkpt lat="44.72913" lon="6.92383">
        <ele>2660.754</ele>
        <time>2018-03-28T09:31:24Z</time>
      </trkpt>
      <trkpt lat="44.72914" lon="6.92393">
        <ele>2663.796</ele>
        <time>2018-03-28T09:31:41Z</time>
      </trkpt>
      <trkpt lat="44.72916" lon="6.92407">
        <ele>2667.476</ele>
        <time>2018-03-28T09:32:17Z</time>
      </trkpt>
      <trkpt lat="44.72922" lon="6.92401">
        <ele>2670.345</ele>
        <time>2018-03-28T09:32:39Z</time>
      </trkpt>
      <trkpt lat="44.72924" lon="6.92401">
        <ele>2672.334</ele>
        <time>2018-03-28T09:33:04Z</time>
      </trkpt>
      <trkpt lat="44.72924" lon="6.92409">
        <ele>2674.29</ele>
        <time>2018-03-28T09:33:25Z</time>
      </trkpt>
      <trkpt lat="44.72927" lon="6.9242">
        <ele>2677.694</ele>
        <time>2018-03-28T09:33:42Z</time>
      </trkpt>
      <trkpt lat="44.72927" lon="6.92427">
        <ele>2680.016</ele>
        <time>2018-03-28T09:33:58Z</time>
      </trkpt>
      <trkpt lat="44.72931" lon="6.9243">
        <ele>2681.47</ele>
        <time>2018-03-28T09:34:10Z</time>
      </trkpt>
      <trkpt lat="44.72934" lon="6.92426">
        <ele>2681.664</ele>
        <time>2018-03-28T09:34:49Z</time>
      </trkpt>
      <trkpt lat="44.72938" lon="6.9242">
        <ele>2682.578</ele>
        <time>2018-03-28T09:34:59Z</time>
      </trkpt>
      <trkpt lat="44.7294" lon="6.92418">
        <ele>2687.22</ele>
        <time>2018-03-28T09:35:17Z</time>
      </trkpt>
      <trkpt lat="44.72942" lon="6.92428">
        <ele>2689.84</ele>
        <time>2018-03-28T09:35:34Z</time>
      </trkpt>
      <trkpt lat="44.72941" lon="6.92433">
        <ele>2691.511</ele>
        <time>2018-03-28T09:36:12Z</time>
      </trkpt>
      <trkpt lat="44.72944" lon="6.9243">
        <ele>2690.658</ele>
        <time>2018-03-28T09:36:29Z</time>
      </trkpt>
      <trkpt lat="44.72944" lon="6.92433">
        <ele>2693.814</ele>
        <time>2018-03-28T09:37:24Z</time>
      </trkpt>
      <trkpt lat="44.72944" lon="6.92443">
        <ele>2696.841</ele>
        <time>2018-03-28T09:38:09Z</time>
      </trkpt>
      <trkpt lat="44.72946" lon="6.92455">
        <ele>2699.177</ele>
        <time>2018-03-28T09:38:23Z</time>
      </trkpt>
      <trkpt lat="44.72948" lon="6.92463">
        <ele>2701.415</ele>
        <time>2018-03-28T09:38:34Z</time>
      </trkpt>
      <trkpt lat="44.72954" lon="6.9248">
        <ele>2704.869</ele>
        <time>2018-03-28T09:39:07Z</time>
      </trkpt>
      <trkpt lat="44.72958" lon="6.92477">
        <ele>2705.477</ele>
        <time>2018-03-28T09:39:25Z</time>
      </trkpt>
      <trkpt lat="44.72968" lon="6.92465">
        <ele>2708.714</ele>
        <time>2018-03-28T09:39:47Z</time>
      </trkpt>
      <trkpt lat="44.72971" lon="6.92454">
        <ele>2710.672</ele>
        <time>2018-03-28T09:40:15Z</time>
      </trkpt>
      <trkpt lat="44.72974" lon="6.92449">
        <ele>2711.88</ele>
        <time>2018-03-28T09:40:30Z</time>
      </trkpt>
      <trkpt lat="44.72976" lon="6.92447">
        <ele>2715.178</ele>
        <time>2018-03-28T09:40:46Z</time>
      </trkpt>
      <trkpt lat="44.72977" lon="6.92455">
        <ele>2717.881</ele>
        <time>2018-03-28T09:41:01Z</time>
      </trkpt>
      <trkpt lat="44.72976" lon="6.92462">
        <ele>2719.049</ele>
        <time>2018-03-28T09:41:17Z</time>
      </trkpt>
      <trkpt lat="44.72976" lon="6.92471">
        <ele>2720.831</ele>
        <time>2018-03-28T09:41:35Z</time>
      </trkpt>
      <trkpt lat="44.7298" lon="6.92473">
        <ele>2721.322</ele>
        <time>2018-03-28T09:41:51Z</time>
      </trkpt>
      <trkpt lat="44.72991" lon="6.92466">
        <ele>2723.585</ele>
        <time>2018-03-28T09:42:10Z</time>
      </trkpt>
      <trkpt lat="44.72997" lon="6.9246">
        <ele>2726.59</ele>
        <time>2018-03-28T09:42:25Z</time>
      </trkpt>
      <trkpt lat="44.73003" lon="6.92455">
        <ele>2729.258</ele>
        <time>2018-03-28T09:42:42Z</time>
      </trkpt>
      <trkpt lat="44.73007" lon="6.92449">
        <ele>2733.545</ele>
        <time>2018-03-28T09:42:57Z</time>
      </trkpt>
      <trkpt lat="44.73017" lon="6.92438">
        <ele>2735.464</ele>
        <time>2018-03-28T09:43:21Z</time>
      </trkpt>
      <trkpt lat="44.73022" lon="6.92432">
        <ele>2740.413</ele>
        <time>2018-03-28T09:43:54Z</time>
      </trkpt>
      <trkpt lat="44.73023" lon="6.92437">
        <ele>2740.546</ele>
        <time>2018-03-28T09:44:18Z</time>
      </trkpt>
      <trkpt lat="44.73025" lon="6.92451">
        <ele>2743.618</ele>
        <time>2018-03-28T09:44:37Z</time>
      </trkpt>
      <trkpt lat="44.73025" lon="6.92463">
        <ele>2747.024</ele>
        <time>2018-03-28T09:44:58Z</time>
      </trkpt>
      <trkpt lat="44.73027" lon="6.92473">
        <ele>2749.678</ele>
        <time>2018-03-28T09:45:16Z</time>
      </trkpt>
      <trkpt lat="44.73029" lon="6.92481">
        <ele>2751.525</ele>
        <time>2018-03-28T09:45:41Z</time>
      </trkpt>
      <trkpt lat="44.7303" lon="6.92491">
        <ele>2754.615</ele>
        <time>2018-03-28T09:45:58Z</time>
      </trkpt>
      <trkpt lat="44.73034" lon="6.92502">
        <ele>2757.719</ele>
        <time>2018-03-28T09:46:17Z</time>
      </trkpt>
      <trkpt lat="44.73037" lon="6.92508">
        <ele>2759.689</ele>
        <time>2018-03-28T09:46:33Z</time>
      </trkpt>
      <trkpt lat="44.7304" lon="6.9252">
        <ele>2762.221</ele>
        <time>2018-03-28T09:47:13Z</time>
      </trkpt>
      <trkpt lat="44.73041" lon="6.92525">
        <ele>2764.786</ele>
        <time>2018-03-28T09:47:29Z</time>
      </trkpt>
      <trkpt lat="44.73043" lon="6.92531">
        <ele>2765.952</ele>
        <time>2018-03-28T09:47:46Z</time>
      </trkpt>
      <trkpt lat="44.73047" lon="6.92545">
        <ele>2769.042</ele>
        <time>2018-03-28T09:48:05Z</time>
      </trkpt>
      <trkpt lat="44.73047" lon="6.92552">
        <ele>2772.182</ele>
        <time>2018-03-28T09:48:26Z</time>
      </trkpt>
      <trkpt lat="44.73046" lon="6.92569">
        <ele>2775.289</ele>
        <time>2018-03-28T09:48:49Z</time>
      </trkpt>
      <trkpt lat="44.73047" lon="6.92579">
        <ele>2777.879</ele>
        <time>2018-03-28T09:49:06Z</time>
      </trkpt>
      <trkpt lat="44.73048" lon="6.92596">
        <ele>2780.601</ele>
        <time>2018-03-28T09:49:42Z</time>
      </trkpt>
      <trkpt lat="44.73047" lon="6.92609">
        <ele>2783.74</ele>
        <time>2018-03-28T09:49:59Z</time>
      </trkpt>
      <trkpt lat="44.73049" lon="6.92627">
        <ele>2786.77</ele>
        <time>2018-03-28T09:50:20Z</time>
      </trkpt>
      <trkpt lat="44.73049" lon="6.92639">
        <ele>2790.02</ele>
        <time>2018-03-28T09:50:41Z</time>
      </trkpt>
      <trkpt lat="44.73053" lon="6.92652">
        <ele>2791.981</ele>
        <time>2018-03-28T09:51:15Z</time>
      </trkpt>
      <trkpt lat="44.73054" lon="6.92659">
        <ele>2793.872</ele>
        <time>2018-03-28T09:51:34Z</time>
      </trkpt>
      <trkpt lat="44.73058" lon="6.92668">
        <ele>2796.5</ele>
        <time>2018-03-28T09:52:20Z</time>
      </trkpt>
      <trkpt lat="44.73059" lon="6.92673">
        <ele>2798.068</ele>
        <time>2018-03-28T09:52:40Z</time>
      </trkpt>
      <trkpt lat="44.73062" lon="6.92686">
        <ele>2801.175</ele>
        <time>2018-03-28T09:52:57Z</time>
      </trkpt>
      <trkpt lat="44.73066" lon="6.92696">
        <ele>2803.134</ele>
        <time>2018-03-28T09:53:13Z</time>
      </trkpt>
      <trkpt lat="44.73068" lon="6.92705">
        <ele>2805.169</ele>
        <time>2018-03-28T09:53:29Z</time>
      </trkpt>
      <trkpt lat="44.73069" lon="6.92713">
        <ele>2806.534</ele>
        <time>2018-03-28T09:53:50Z</time>
      </trkpt>
      <trkpt lat="44.7307" lon="6.92725">
        <ele>2809.579</ele>
        <time>2018-03-28T09:54:11Z</time>
      </trkpt>
      <trkpt lat="44.73073" lon="6.92737">
        <ele>2812.971</ele>
        <time>2018-03-28T09:54:32Z</time>
      </trkpt>
      <trkpt lat="44.73072" lon="6.92749">
        <ele>2815.461</ele>
        <time>2018-03-28T09:54:54Z</time>
      </trkpt>
      <trkpt lat="44.73074" lon="6.92757">
        <ele>2817.389</ele>
        <time>2018-03-28T09:55:15Z</time>
      </trkpt>
      <trkpt lat="44.73076" lon="6.9277">
        <ele>2820.656</ele>
        <time>2018-03-28T09:55:44Z</time>
      </trkpt>
      <trkpt lat="44.73076" lon="6.92782">
        <ele>2823.671</ele>
        <time>2018-03-28T09:56:02Z</time>
      </trkpt>
      <trkpt lat="44.73078" lon="6.92792">
        <ele>2826.678</ele>
        <time>2018-03-28T09:56:19Z</time>
      </trkpt>
      <trkpt lat="44.73078" lon="6.92801">
        <ele>2828.83</ele>
        <time>2018-03-28T09:56:33Z</time>
      </trkpt>
      <trkpt lat="44.7308" lon="6.92806">
        <ele>2831.086</ele>
        <time>2018-03-28T09:56:48Z</time>
      </trkpt>
      <trkpt lat="44.73083" lon="6.92815">
        <ele>2833.388</ele>
        <time>2018-03-28T09:57:05Z</time>
      </trkpt>
      <trkpt lat="44.73085" lon="6.92817">
        <ele>2835.606</ele>
        <time>2018-03-28T09:57:30Z</time>
      </trkpt>
      <trkpt lat="44.73088" lon="6.92816">
        <ele>2833.945</ele>
        <time>2018-03-28T09:57:48Z</time>
      </trkpt>
      <trkpt lat="44.73096" lon="6.92809">
        <ele>2835.839</ele>
        <time>2018-03-28T09:58:16Z</time>
      </trkpt>
      <trkpt lat="44.731" lon="6.92805">
        <ele>2836.375</ele>
        <time>2018-03-28T09:58:33Z</time>
      </trkpt>
      <trkpt lat="44.73103" lon="6.92803">
        <ele>2840.308</ele>
        <time>2018-03-28T09:58:44Z</time>
      </trkpt>
      <trkpt lat="44.731" lon="6.92811">
        <ele>2843.894</ele>
        <time>2018-03-28T09:59:01Z</time>
      </trkpt>
      <trkpt lat="44.73105" lon="6.92811">
        <ele>2842.451</ele>
        <time>2018-03-28T09:59:15Z</time>
      </trkpt>
      <trkpt lat="44.73111" lon="6.92805">
        <ele>2843.668</ele>
        <time>2018-03-28T09:59:31Z</time>
      </trkpt>
      <trkpt lat="44.73117" lon="6.92803">
        <ele>2845.603</ele>
        <time>2018-03-28T09:59:48Z</time>
      </trkpt>
      <trkpt lat="44.73122" lon="6.928">
        <ele>2849.333</ele>
        <time>2018-03-28T10:00:03Z</time>
      </trkpt>
      <trkpt lat="44.73119" lon="6.92808">
        <ele>2853.066</ele>
        <time>2018-03-28T10:00:24Z</time>
      </trkpt>
      <trkpt lat="44.73119" lon="6.92823">
        <ele>2856.109</ele>
        <time>2018-03-28T10:00:47Z</time>
      </trkpt>
      <trkpt lat="44.73119" lon="6.92832">
        <ele>2859.175</ele>
        <time>2018-03-28T10:01:04Z</time>
      </trkpt>
      <trkpt lat="44.7312" lon="6.92841">
        <ele>2860.836</ele>
        <time>2018-03-28T10:01:23Z</time>
      </trkpt>
      <trkpt lat="44.73126" lon="6.92843">
        <ele>2859.11</ele>
        <time>2018-03-28T10:01:45Z</time>
      </trkpt>
      <trkpt lat="44.73136" lon="6.9284">
        <ele>2862.112</ele>
        <time>2018-03-28T10:02:06Z</time>
      </trkpt>
      <trkpt lat="44.73142" lon="6.92836">
        <ele>2865.011</ele>
        <time>2018-03-28T10:02:26Z</time>
      </trkpt>
      <trkpt lat="44.73142" lon="6.92846">
        <ele>2869.729</ele>
        <time>2018-03-28T10:02:58Z</time>
      </trkpt>
      <trkpt lat="44.73142" lon="6.9285">
        <ele>2871.427</ele>
        <time>2018-03-28T10:03:22Z</time>
      </trkpt>
      <trkpt lat="44.7315" lon="6.92845">
        <ele>2871.643</ele>
        <time>2018-03-28T10:03:43Z</time>
      </trkpt>
      <trkpt lat="44.73154" lon="6.92845">
        <ele>2876.543</ele>
        <time>2018-03-28T10:04:02Z</time>
      </trkpt>
      <trkpt lat="44.73151" lon="6.92854">
        <ele>2878.723</ele>
        <time>2018-03-28T10:04:21Z</time>
      </trkpt>
      <trkpt lat="44.73149" lon="6.92867">
        <ele>2881.933</ele>
        <time>2018-03-28T10:04:41Z</time>
      </trkpt>
      <trkpt lat="44.73152" lon="6.92869">
        <ele>2878.279</ele>
        <time>2018-03-28T10:04:57Z</time>
      </trkpt>
      <trkpt lat="44.73162" lon="6.92861">
        <ele>2881.907</ele>
        <time>2018-03-28T10:05:18Z</time>
      </trkpt>
      <trkpt lat="44.73165" lon="6.92858">
        <ele>2886.015</ele>
        <time>2018-03-28T10:05:27Z</time>
      </trkpt>
      <trkpt lat="44.73164" lon="6.9287">
        <ele>2888.314</ele>
        <time>2018-03-28T10:05:47Z</time>
      </trkpt>
      <trkpt lat="44.73165" lon="6.92872">
        <ele>2890.246</ele>
        <time>2018-03-28T10:05:51Z</time>
      </trkpt>
      <trkpt lat="44.73166" lon="6.92876">
        <ele>2892.658</ele>
        <time>2018-03-28T10:06:08Z</time>
      </trkpt>
      <trkpt lat="44.73175" lon="6.9287">
        <ele>2888.715</ele>
        <time>2018-03-28T10:06:31Z</time>
      </trkpt>
      <trkpt lat="44.73181" lon="6.92865">
        <ele>2892.153</ele>
        <time>2018-03-28T10:06:49Z</time>
      </trkpt>
      <trkpt lat="44.73184" lon="6.92863">
        <ele>2893.453</ele>
        <time>2018-03-28T10:06:56Z</time>
      </trkpt>
      <trkpt lat="44.73192" lon="6.92859">
        <ele>2895.238</ele>
        <time>2018-03-28T10:07:15Z</time>
      </trkpt>
      <trkpt lat="44.73199" lon="6.92857">
        <ele>2898.489</ele>
        <time>2018-03-28T10:07:33Z</time>
      </trkpt>
      <trkpt lat="44.73206" lon="6.9285">
        <ele>2900.431</ele>
        <time>2018-03-28T10:07:54Z</time>
      </trkpt>
      <trkpt lat="44.73214" lon="6.92845">
        <ele>2905.639</ele>
        <time>2018-03-28T10:08:18Z</time>
      </trkpt>
      <trkpt lat="44.73214" lon="6.92861">
        <ele>2907.92</ele>
        <time>2018-03-28T10:11:33Z</time>
      </trkpt>
      <trkpt lat="44.73213" lon="6.92869">
        <ele>2910.989</ele>
        <time>2018-03-28T10:11:47Z</time>
      </trkpt>
      <trkpt lat="44.73219" lon="6.92868">
        <ele>2911.136</ele>
        <time>2018-03-28T10:12:02Z</time>
      </trkpt>
      <trkpt lat="44.73225" lon="6.92867">
        <ele>2913.561</ele>
        <time>2018-03-28T10:12:14Z</time>
      </trkpt>
      <trkpt lat="44.73231" lon="6.92865">
        <ele>2915.146</ele>
        <time>2018-03-28T10:12:32Z</time>
      </trkpt>
      <trkpt lat="44.73238" lon="6.92864">
        <ele>2918.217</ele>
        <time>2018-03-28T10:12:50Z</time>
      </trkpt>
      <trkpt lat="44.73237" lon="6.92873">
        <ele>2919.405</ele>
        <time>2018-03-28T10:13:08Z</time>
      </trkpt>
      <trkpt lat="44.73237" lon="6.92884">
        <ele>2922.431</ele>
        <time>2018-03-28T10:13:33Z</time>
      </trkpt>
      <trkpt lat="44.73237" lon="6.92897">
        <ele>2925.069</ele>
        <time>2018-03-28T10:13:58Z</time>
      </trkpt>
      <trkpt lat="44.73237" lon="6.92912">
        <ele>2928.185</ele>
        <time>2018-03-28T10:14:22Z</time>
      </trkpt>
      <trkpt lat="44.73239" lon="6.92922">
        <ele>2930.268</ele>
        <time>2018-03-28T10:14:41Z</time>
      </trkpt>
      <trkpt lat="44.73243" lon="6.92928">
        <ele>2933.607</ele>
        <time>2018-03-28T10:14:54Z</time>
      </trkpt>
      <trkpt lat="44.73254" lon="6.92923">
        <ele>2934.531</ele>
        <time>2018-03-28T10:15:18Z</time>
      </trkpt>
      <trkpt lat="44.7327" lon="6.92912">
        <ele>2938.056</ele>
        <time>2018-03-28T10:15:50Z</time>
      </trkpt>
      <trkpt lat="44.73283" lon="6.92908">
        <ele>2938.004</ele>
        <time>2018-03-28T10:16:11Z</time>
      </trkpt>
      <trkpt lat="44.73296" lon="6.92903">
        <ele>2939.287</ele>
        <time>2018-03-28T10:17:03Z</time>
      </trkpt>
      <trkpt lat="44.73293" lon="6.92903">
        <ele>2939.054</ele>
        <time>2018-03-28T10:17:23Z</time>
      </trkpt>
      <trkpt lat="44.73283" lon="6.92905">
        <ele>2937.973</ele>
        <time>2018-03-28T10:45:53Z</time>
      </trkpt>
      <trkpt lat="44.73271" lon="6.92901">
        <ele>2938.882</ele>
        <time>2018-03-28T10:47:49Z</time>
      </trkpt>
      <trkpt lat="44.73263" lon="6.92887">
        <ele>2934.991</ele>
        <time>2018-03-28T10:50:01Z</time>
      </trkpt>
      <trkpt lat="44.73252" lon="6.92901">
        <ele>2931.75</ele>
        <time>2018-03-28T10:50:07Z</time>
      </trkpt>
      <trkpt lat="44.7325" lon="6.92905">
        <ele>2931.746</ele>
        <time>2018-03-28T10:50:08Z</time>
      </trkpt>
      <trkpt lat="44.73241" lon="6.92922">
        <ele>2930.657</ele>
        <time>2018-03-28T10:50:15Z</time>
      </trkpt>
      <trkpt lat="44.73237" lon="6.92909">
        <ele>2928.051</ele>
        <time>2018-03-28T10:50:20Z</time>
      </trkpt>
      <trkpt lat="44.73239" lon="6.92905">
        <ele>2925.883</ele>
        <time>2018-03-28T10:50:22Z</time>
      </trkpt>
      <trkpt lat="44.73239" lon="6.92895">
        <ele>2928.137</ele>
        <time>2018-03-28T10:50:26Z</time>
      </trkpt>
      <trkpt lat="44.73242" lon="6.92885">
        <ele>2925.945</ele>
        <time>2018-03-28T10:50:30Z</time>
      </trkpt>
      <trkpt lat="44.73243" lon="6.92867">
        <ele>2921.724</ele>
        <time>2018-03-28T10:50:37Z</time>
      </trkpt>
      <trkpt lat="44.73245" lon="6.92856">
        <ele>2922.025</ele>
        <time>2018-03-28T10:50:51Z</time>
      </trkpt>
      <trkpt lat="44.73249" lon="6.92844">
        <ele>2919.27</ele>
        <time>2018-03-28T10:51:03Z</time>
      </trkpt>
      <trkpt lat="44.73242" lon="6.92842">
        <ele>2917.469</ele>
        <time>2018-03-28T10:51:08Z</time>
      </trkpt>
      <trkpt lat="44.7324" lon="6.92829">
        <ele>2913.105</ele>
        <time>2018-03-28T10:51:14Z</time>
      </trkpt>
      <trkpt lat="44.73232" lon="6.92825">
        <ele>2910.814</ele>
        <time>2018-03-28T10:51:19Z</time>
      </trkpt>
      <trkpt lat="44.73229" lon="6.92827">
        <ele>2907.822</ele>
        <time>2018-03-28T10:51:21Z</time>
      </trkpt>
      <trkpt lat="44.73223" lon="6.92832">
        <ele>2906.596</ele>
        <time>2018-03-28T10:51:24Z</time>
      </trkpt>
      <trkpt lat="44.73214" lon="6.92842">
        <ele>2904.402</ele>
        <time>2018-03-28T10:51:29Z</time>
      </trkpt>
      <trkpt lat="44.73211" lon="6.92831">
        <ele>2902.785</ele>
        <time>2018-03-28T10:51:35Z</time>
      </trkpt>
      <trkpt lat="44.73215" lon="6.92821">
        <ele>2901.08</ele>
        <time>2018-03-28T10:51:40Z</time>
      </trkpt>
      <trkpt lat="44.73207" lon="6.92821">
        <ele>2898.122</ele>
        <time>2018-03-28T10:51:45Z</time>
      </trkpt>
      <trkpt lat="44.73204" lon="6.92824">
        <ele>2896.351</ele>
        <time>2018-03-28T10:51:47Z</time>
      </trkpt>
      <trkpt lat="44.73199" lon="6.92829">
        <ele>2894.633</ele>
        <time>2018-03-28T10:51:52Z</time>
      </trkpt>
      <trkpt lat="44.73188" lon="6.92843">
        <ele>2891.835</ele>
        <time>2018-03-28T10:52:23Z</time>
      </trkpt>
      <trkpt lat="44.7318" lon="6.92856">
        <ele>2891.455</ele>
        <time>2018-03-28T10:55:12Z</time>
      </trkpt>
      <trkpt lat="44.73176" lon="6.92864">
        <ele>2890.633</ele>
        <time>2018-03-28T10:55:17Z</time>
      </trkpt>
      <trkpt lat="44.73174" lon="6.92848">
        <ele>2887.301</ele>
        <time>2018-03-28T10:55:25Z</time>
      </trkpt>
      <trkpt lat="44.73167" lon="6.92855">
        <ele>2885.234</ele>
        <time>2018-03-28T10:55:29Z</time>
      </trkpt>
      <trkpt lat="44.73164" lon="6.92859">
        <ele>2882.969</ele>
        <time>2018-03-28T10:55:31Z</time>
      </trkpt>
      <trkpt lat="44.73158" lon="6.92847">
        <ele>2878.222</ele>
        <time>2018-03-28T10:56:24Z</time>
      </trkpt>
      <trkpt lat="44.73151" lon="6.92857">
        <ele>2872.26</ele>
        <time>2018-03-28T10:56:28Z</time>
      </trkpt>
      <trkpt lat="44.73139" lon="6.92842">
        <ele>2872.627</ele>
        <time>2018-03-28T10:56:34Z</time>
      </trkpt>
      <trkpt lat="44.7314" lon="6.92834">
        <ele>2866.115</ele>
        <time>2018-03-28T10:56:37Z</time>
      </trkpt>
      <trkpt lat="44.73136" lon="6.92836">
        <ele>2866.517</ele>
        <time>2018-03-28T10:56:39Z</time>
      </trkpt>
      <trkpt lat="44.73127" lon="6.92824">
        <ele>2861.587</ele>
        <time>2018-03-28T10:56:44Z</time>
      </trkpt>
      <trkpt lat="44.73121" lon="6.92823">
        <ele>2855.178</ele>
        <time>2018-03-28T10:56:47Z</time>
      </trkpt>
      <trkpt lat="44.73119" lon="6.92826">
        <ele>2855.173</ele>
        <time>2018-03-28T10:56:48Z</time>
      </trkpt>
      <trkpt lat="44.73114" lon="6.9282">
        <ele>2853.877</ele>
        <time>2018-03-28T10:56:50Z</time>
      </trkpt>
      <trkpt lat="44.73111" lon="6.92811">
        <ele>2849.715</ele>
        <time>2018-03-28T10:56:54Z</time>
      </trkpt>
      <trkpt lat="44.73103" lon="6.92815">
        <ele>2845.534</ele>
        <time>2018-03-28T10:56:57Z</time>
      </trkpt>
      <trkpt lat="44.73095" lon="6.9281">
        <ele>2842.585</ele>
        <time>2018-03-28T10:57:00Z</time>
      </trkpt>
      <trkpt lat="44.73092" lon="6.92813">
        <ele>2837.484</ele>
        <time>2018-03-28T10:57:01Z</time>
      </trkpt>
      <trkpt lat="44.73088" lon="6.92814">
        <ele>2837.479</ele>
        <time>2018-03-28T10:57:02Z</time>
      </trkpt>
      <trkpt lat="44.73086" lon="6.92809">
        <ele>2833.405</ele>
        <time>2018-03-28T10:57:05Z</time>
      </trkpt>
      <trkpt lat="44.73089" lon="6.92786">
        <ele>2832.934</ele>
        <time>2018-03-28T10:58:32Z</time>
      </trkpt>
      <trkpt lat="44.73092" lon="6.92771">
        <ele>2831.214</ele>
        <time>2018-03-28T10:58:35Z</time>
      </trkpt>
      <trkpt lat="44.73092" lon="6.92757">
        <ele>2827.913</ele>
        <time>2018-03-28T10:58:42Z</time>
      </trkpt>
      <trkpt lat="44.73086" lon="6.92758">
        <ele>2824.72</ele>
        <time>2018-03-28T10:58:44Z</time>
      </trkpt>
      <trkpt lat="44.73085" lon="6.9275">
        <ele>2823.82</ele>
        <time>2018-03-28T10:58:46Z</time>
      </trkpt>
      <trkpt lat="44.73086" lon="6.92745">
        <ele>2820.388</ele>
        <time>2018-03-28T10:58:48Z</time>
      </trkpt>
      <trkpt lat="44.73086" lon="6.92724">
        <ele>2818.566</ele>
        <time>2018-03-28T10:58:57Z</time>
      </trkpt>
      <trkpt lat="44.7308" lon="6.92726">
        <ele>2816.379</ele>
        <time>2018-03-28T10:59:00Z</time>
      </trkpt>
      <trkpt lat="44.73077" lon="6.92718">
        <ele>2812.607</ele>
        <time>2018-03-28T10:59:02Z</time>
      </trkpt>
      <trkpt lat="44.73077" lon="6.9271">
        <ele>2811.877</ele>
        <time>2018-03-28T10:59:04Z</time>
      </trkpt>
      <trkpt lat="44.73069" lon="6.92711">
        <ele>2806.705</ele>
        <time>2018-03-28T10:59:08Z</time>
      </trkpt>
      <trkpt lat="44.73061" lon="6.92712">
        <ele>2805.118</ele>
        <time>2018-03-28T10:59:12Z</time>
      </trkpt>
      <trkpt lat="44.73061" lon="6.92708">
        <ele>2803.636</ele>
        <time>2018-03-28T10:59:13Z</time>
      </trkpt>
      <trkpt lat="44.73061" lon="6.92694">
        <ele>2801.514</ele>
        <time>2018-03-28T10:59:27Z</time>
      </trkpt>
      <trkpt lat="44.73056" lon="6.92692">
        <ele>2800.906</ele>
        <time>2018-03-28T10:59:33Z</time>
      </trkpt>
      <trkpt lat="44.73054" lon="6.92696">
        <ele>2797.206</ele>
        <time>2018-03-28T10:59:34Z</time>
      </trkpt>
      <trkpt lat="44.73053" lon="6.92702">
        <ele>2797.205</ele>
        <time>2018-03-28T10:59:35Z</time>
      </trkpt>
      <trkpt lat="44.73047" lon="6.92704">
        <ele>2793.06</ele>
        <time>2018-03-28T10:59:39Z</time>
      </trkpt>
      <trkpt lat="44.73041" lon="6.92705">
        <ele>2786.568</ele>
        <time>2018-03-28T10:59:43Z</time>
      </trkpt>
      <trkpt lat="44.73036" lon="6.92708">
        <ele>2786.568</ele>
        <time>2018-03-28T10:59:44Z</time>
      </trkpt>
      <trkpt lat="44.73028" lon="6.92698">
        <ele>2781.33</ele>
        <time>2018-03-28T10:59:46Z</time>
      </trkpt>
      <trkpt lat="44.73027" lon="6.92692">
        <ele>2781.33</ele>
        <time>2018-03-28T10:59:47Z</time>
      </trkpt>
      <trkpt lat="44.73027" lon="6.92688">
        <ele>2778.117</ele>
        <time>2018-03-28T10:59:48Z</time>
      </trkpt>
      <trkpt lat="44.73027" lon="6.92685">
        <ele>2778.595</ele>
        <time>2018-03-28T11:00:10Z</time>
      </trkpt>
      <trkpt lat="44.73023" lon="6.9265">
        <ele>2776.959</ele>
        <time>2018-03-28T11:01:24Z</time>
      </trkpt>
      <trkpt lat="44.73021" lon="6.9264">
        <ele>2775.364</ele>
        <time>2018-03-28T11:01:28Z</time>
      </trkpt>
      <trkpt lat="44.73017" lon="6.92641">
        <ele>2772.085</ele>
        <time>2018-03-28T11:01:31Z</time>
      </trkpt>
      <trkpt lat="44.73014" lon="6.92641">
        <ele>2768.951</ele>
        <time>2018-03-28T11:01:32Z</time>
      </trkpt>
      <trkpt lat="44.73012" lon="6.92638">
        <ele>2768.95</ele>
        <time>2018-03-28T11:01:33Z</time>
      </trkpt>
      <trkpt lat="44.73007" lon="6.92642">
        <ele>2758.339</ele>
        <time>2018-03-28T11:01:38Z</time>
      </trkpt>
      <trkpt lat="44.73002" lon="6.92632">
        <ele>2756.057</ele>
        <time>2018-03-28T11:02:00Z</time>
      </trkpt>
      <trkpt lat="44.72996" lon="6.92623">
        <ele>2753.334</ele>
        <time>2018-03-28T11:02:04Z</time>
      </trkpt>
      <trkpt lat="44.72991" lon="6.92617">
        <ele>2750.713</ele>
        <time>2018-03-28T11:02:06Z</time>
      </trkpt>
      <trkpt lat="44.72985" lon="6.9262">
        <ele>2747.25</ele>
        <time>2018-03-28T11:02:08Z</time>
      </trkpt>
      <trkpt lat="44.72981" lon="6.92619">
        <ele>2743.553</ele>
        <time>2018-03-28T11:02:09Z</time>
      </trkpt>
      <trkpt lat="44.72978" lon="6.92614">
        <ele>2743.555</ele>
        <time>2018-03-28T11:02:10Z</time>
      </trkpt>
      <trkpt lat="44.72977" lon="6.92611">
        <ele>2739.255</ele>
        <time>2018-03-28T11:02:11Z</time>
      </trkpt>
      <trkpt lat="44.72974" lon="6.92613">
        <ele>2739.256</ele>
        <time>2018-03-28T11:02:12Z</time>
      </trkpt>
      <trkpt lat="44.72968" lon="6.92613">
        <ele>2735.739</ele>
        <time>2018-03-28T11:02:13Z</time>
      </trkpt>
      <trkpt lat="44.72964" lon="6.92609">
        <ele>2732.863</ele>
        <time>2018-03-28T11:02:14Z</time>
      </trkpt>
      <trkpt lat="44.72955" lon="6.92605">
        <ele>2729.764</ele>
        <time>2018-03-28T11:02:17Z</time>
      </trkpt>
      <trkpt lat="44.72953" lon="6.92602">
        <ele>2726.667</ele>
        <time>2018-03-28T11:02:18Z</time>
      </trkpt>
      <trkpt lat="44.7295" lon="6.92598">
        <ele>2726.669</ele>
        <time>2018-03-28T11:02:19Z</time>
      </trkpt>
      <trkpt lat="44.72945" lon="6.92599">
        <ele>2719.533</ele>
        <time>2018-03-28T11:02:21Z</time>
      </trkpt>
      <trkpt lat="44.72943" lon="6.92597">
        <ele>2719.537</ele>
        <time>2018-03-28T11:02:22Z</time>
      </trkpt>
      <trkpt lat="44.72941" lon="6.92592">
        <ele>2717.547</ele>
        <time>2018-03-28T11:02:24Z</time>
      </trkpt>
      <trkpt lat="44.72935" lon="6.92597">
        <ele>2713.312</ele>
        <time>2018-03-28T11:04:06Z</time>
      </trkpt>
      <trkpt lat="44.72934" lon="6.92584">
        <ele>2710.546</ele>
        <time>2018-03-28T11:04:27Z</time>
      </trkpt>
      <trkpt lat="44.72933" lon="6.92577">
        <ele>2709.18</ele>
        <time>2018-03-28T11:04:29Z</time>
      </trkpt>
      <trkpt lat="44.72929" lon="6.92571">
        <ele>2707.751</ele>
        <time>2018-03-28T11:04:31Z</time>
      </trkpt>
      <trkpt lat="44.72926" lon="6.92563">
        <ele>2702.764</ele>
        <time>2018-03-28T11:04:33Z</time>
      </trkpt>
      <trkpt lat="44.7292" lon="6.92557">
        <ele>2698.551</ele>
        <time>2018-03-28T11:04:35Z</time>
      </trkpt>
      <trkpt lat="44.72917" lon="6.92553">
        <ele>2698.556</ele>
        <time>2018-03-28T11:04:36Z</time>
      </trkpt>
      <trkpt lat="44.72916" lon="6.92548">
        <ele>2694.675</ele>
        <time>2018-03-28T11:04:37Z</time>
      </trkpt>
      <trkpt lat="44.72911" lon="6.92548">
        <ele>2694.68</ele>
        <time>2018-03-28T11:04:38Z</time>
      </trkpt>
      <trkpt lat="44.72905" lon="6.92547">
        <ele>2691.272</ele>
        <time>2018-03-28T11:04:39Z</time>
      </trkpt>
      <trkpt lat="44.72902" lon="6.92542">
        <ele>2685.84</ele>
        <time>2018-03-28T11:04:40Z</time>
      </trkpt>
      <trkpt lat="44.729" lon="6.92537">
        <ele>2685.845</ele>
        <time>2018-03-28T11:04:41Z</time>
      </trkpt>
      <trkpt lat="44.72894" lon="6.92535">
        <ele>2682.836</ele>
        <time>2018-03-28T11:04:43Z</time>
      </trkpt>
      <trkpt lat="44.72892" lon="6.92531">
        <ele>2679.449</ele>
        <time>2018-03-28T11:04:44Z</time>
      </trkpt>
      <trkpt lat="44.72888" lon="6.92527">
        <ele>2679.457</ele>
        <time>2018-03-28T11:04:45Z</time>
      </trkpt>
      <trkpt lat="44.72883" lon="6.92526">
        <ele>2674.982</ele>
        <time>2018-03-28T11:04:46Z</time>
      </trkpt>
      <trkpt lat="44.72877" lon="6.92525">
        <ele>2670.477</ele>
        <time>2018-03-28T11:04:47Z</time>
      </trkpt>
      <trkpt lat="44.72875" lon="6.92519">
        <ele>2670.485</ele>
        <time>2018-03-28T11:04:48Z</time>
      </trkpt>
      <trkpt lat="44.72873" lon="6.92513">
        <ele>2666.675</ele>
        <time>2018-03-28T11:04:49Z</time>
      </trkpt>
      <trkpt lat="44.72869" lon="6.92509">
        <ele>2666.685</ele>
        <time>2018-03-28T11:04:50Z</time>
      </trkpt>
      <trkpt lat="44.72864" lon="6.92512">
        <ele>2660.894</ele>
        <time>2018-03-28T11:04:51Z</time>
      </trkpt>
      <trkpt lat="44.72859" lon="6.92516">
        <ele>2660.9</ele>
        <time>2018-03-28T11:04:52Z</time>
      </trkpt>
      <trkpt lat="44.72849" lon="6.92521">
        <ele>2657.952</ele>
        <time>2018-03-28T11:04:54Z</time>
      </trkpt>
      <trkpt lat="44.72844" lon="6.92523">
        <ele>2658.326</ele>
        <time>2018-03-28T11:04:58Z</time>
      </trkpt>
      <trkpt lat="44.72837" lon="6.92516">
        <ele>2656.92</ele>
        <time>2018-03-28T11:05:01Z</time>
      </trkpt>
      <trkpt lat="44.7283" lon="6.92509">
        <ele>2653.57</ele>
        <time>2018-03-28T11:05:04Z</time>
      </trkpt>
      <trkpt lat="44.72827" lon="6.92518">
        <ele>2649.569</ele>
        <time>2018-03-28T11:05:06Z</time>
      </trkpt>
      <trkpt lat="44.72822" lon="6.92529">
        <ele>2648.641</ele>
        <time>2018-03-28T11:05:08Z</time>
      </trkpt>
      <trkpt lat="44.72812" lon="6.92527">
        <ele>2645.735</ele>
        <time>2018-03-28T11:46:44Z</time>
      </trkpt>
      <trkpt lat="44.72792" lon="6.92535">
        <ele>2640.665</ele>
        <time>2018-03-28T11:46:51Z</time>
      </trkpt>
      <trkpt lat="44.72789" lon="6.92542">
        <ele>2640.661</ele>
        <time>2018-03-28T11:46:52Z</time>
      </trkpt>
      <trkpt lat="44.72778" lon="6.92556">
        <ele>2639.918</ele>
        <time>2018-03-28T11:46:58Z</time>
      </trkpt>
      <trkpt lat="44.72775" lon="6.92556">
        <ele>2639.033</ele>
        <time>2018-03-28T11:47:22Z</time>
      </trkpt>
      <trkpt lat="44.72769" lon="6.92547">
        <ele>2636.066</ele>
        <time>2018-03-28T11:47:26Z</time>
      </trkpt>
      <trkpt lat="44.72763" lon="6.92541">
        <ele>2632.427</ele>
        <time>2018-03-28T11:47:29Z</time>
      </trkpt>
      <trkpt lat="44.72758" lon="6.92538">
        <ele>2630.076</ele>
        <time>2018-03-28T11:47:31Z</time>
      </trkpt>
      <trkpt lat="44.72757" lon="6.92537">
        <ele>2626.323</ele>
        <time>2018-03-28T11:47:32Z</time>
      </trkpt>
      <trkpt lat="44.72755" lon="6.92531">
        <ele>2626.323</ele>
        <time>2018-03-28T11:47:33Z</time>
      </trkpt>
      <trkpt lat="44.72749" lon="6.92527">
        <ele>2621.296</ele>
        <time>2018-03-28T11:47:35Z</time>
      </trkpt>
      <trkpt lat="44.72745" lon="6.92526">
        <ele>2621.297</ele>
        <time>2018-03-28T11:47:36Z</time>
      </trkpt>
      <trkpt lat="44.72744" lon="6.92523">
        <ele>2618.91</ele>
        <time>2018-03-28T11:47:37Z</time>
      </trkpt>
      <trkpt lat="44.7274" lon="6.92519">
        <ele>2616.818</ele>
        <time>2018-03-28T11:47:39Z</time>
      </trkpt>
      <trkpt lat="44.72733" lon="6.92524">
        <ele>2612.733</ele>
        <time>2018-03-28T11:47:41Z</time>
      </trkpt>
      <trkpt lat="44.72731" lon="6.92521">
        <ele>2612.732</ele>
        <time>2018-03-28T11:47:42Z</time>
      </trkpt>
      <trkpt lat="44.72726" lon="6.9251">
        <ele>2610.47</ele>
        <time>2018-03-28T11:47:44Z</time>
      </trkpt>
      <trkpt lat="44.72727" lon="6.92495">
        <ele>2609.395</ele>
        <time>2018-03-28T11:47:54Z</time>
      </trkpt>
      <trkpt lat="44.72719" lon="6.925">
        <ele>2605.671</ele>
        <time>2018-03-28T11:47:58Z</time>
      </trkpt>
      <trkpt lat="44.72717" lon="6.92501">
        <ele>2605.669</ele>
        <time>2018-03-28T11:47:59Z</time>
      </trkpt>
      <trkpt lat="44.72706" lon="6.92498">
        <ele>2603.244</ele>
        <time>2018-03-28T11:48:03Z</time>
      </trkpt>
      <trkpt lat="44.72704" lon="6.9249">
        <ele>2599.273</ele>
        <time>2018-03-28T11:48:05Z</time>
      </trkpt>
      <trkpt lat="44.72701" lon="6.92491">
        <ele>2599.273</ele>
        <time>2018-03-28T11:48:06Z</time>
      </trkpt>
      <trkpt lat="44.72698" lon="6.92492">
        <ele>2595.487</ele>
        <time>2018-03-28T11:48:07Z</time>
      </trkpt>
      <trkpt lat="44.72696" lon="6.92489">
        <ele>2595.485</ele>
        <time>2018-03-28T11:48:08Z</time>
      </trkpt>
      <trkpt lat="44.72688" lon="6.92485">
        <ele>2589.309</ele>
        <time>2018-03-28T11:48:11Z</time>
      </trkpt>
      <trkpt lat="44.72683" lon="6.92478">
        <ele>2587.171</ele>
        <time>2018-03-28T11:48:13Z</time>
      </trkpt>
      <trkpt lat="44.72677" lon="6.92478">
        <ele>2585.19</ele>
        <time>2018-03-28T11:48:15Z</time>
      </trkpt>
      <trkpt lat="44.72675" lon="6.92475">
        <ele>2581.96</ele>
        <time>2018-03-28T11:48:16Z</time>
      </trkpt>
      <trkpt lat="44.72672" lon="6.92474">
        <ele>2581.958</ele>
        <time>2018-03-28T11:48:17Z</time>
      </trkpt>
      <trkpt lat="44.72666" lon="6.9247">
        <ele>2578.992</ele>
        <time>2018-03-28T11:48:19Z</time>
      </trkpt>
      <trkpt lat="44.7266" lon="6.9247">
        <ele>2572.417</ele>
        <time>2018-03-28T11:48:21Z</time>
      </trkpt>
      <trkpt lat="44.72656" lon="6.92467">
        <ele>2572.415</ele>
        <time>2018-03-28T11:48:22Z</time>
      </trkpt>
      <trkpt lat="44.72649" lon="6.92467">
        <ele>2570.167</ele>
        <time>2018-03-28T11:48:24Z</time>
      </trkpt>
      <trkpt lat="44.72646" lon="6.92472">
        <ele>2566.1</ele>
        <time>2018-03-28T11:48:25Z</time>
      </trkpt>
      <trkpt lat="44.72644" lon="6.92475">
        <ele>2566.1</ele>
        <time>2018-03-28T11:48:26Z</time>
      </trkpt>
      <trkpt lat="44.72643" lon="6.92479">
        <ele>2564.762</ele>
        <time>2018-03-28T11:48:28Z</time>
      </trkpt>
      <trkpt lat="44.72637" lon="6.92486">
        <ele>2564.542</ele>
        <time>2018-03-28T11:48:33Z</time>
      </trkpt>
      <trkpt lat="44.7263" lon="6.92476">
        <ele>2561.358</ele>
        <time>2018-03-28T11:48:36Z</time>
      </trkpt>
      <trkpt lat="44.72618" lon="6.92469">
        <ele>2557.315</ele>
        <time>2018-03-28T11:48:40Z</time>
      </trkpt>
      <trkpt lat="44.72613" lon="6.92476">
        <ele>2551.434</ele>
        <time>2018-03-28T11:48:43Z</time>
      </trkpt>
      <trkpt lat="44.72609" lon="6.92484">
        <ele>2550.415</ele>
        <time>2018-03-28T11:48:46Z</time>
      </trkpt>
      <trkpt lat="44.72602" lon="6.92489">
        <ele>2549.976</ele>
        <time>2018-03-28T11:48:49Z</time>
      </trkpt>
      <trkpt lat="44.72595" lon="6.92479">
        <ele>2548.122</ele>
        <time>2018-03-28T11:48:52Z</time>
      </trkpt>
      <trkpt lat="44.72585" lon="6.92474">
        <ele>2546.62</ele>
        <time>2018-03-28T11:48:54Z</time>
      </trkpt>
      <trkpt lat="44.72578" lon="6.92475">
        <ele>2540.915</ele>
        <time>2018-03-28T11:48:55Z</time>
      </trkpt>
      <trkpt lat="44.72566" lon="6.92478">
        <ele>2539.872</ele>
        <time>2018-03-28T11:48:57Z</time>
      </trkpt>
      <trkpt lat="44.72561" lon="6.92478">
        <ele>2538.313</ele>
        <time>2018-03-28T11:48:58Z</time>
      </trkpt>
      <trkpt lat="44.72544" lon="6.9248">
        <ele>2537.05</ele>
        <time>2018-03-28T11:49:01Z</time>
      </trkpt>
      <trkpt lat="44.72533" lon="6.92483">
        <ele>2534.494</ele>
        <time>2018-03-28T11:49:03Z</time>
      </trkpt>
      <trkpt lat="44.72518" lon="6.92482">
        <ele>2532.844</ele>
        <time>2018-03-28T11:49:06Z</time>
      </trkpt>
      <trkpt lat="44.7251" lon="6.92485">
        <ele>2532.194</ele>
        <time>2018-03-28T11:49:15Z</time>
      </trkpt>
      <trkpt lat="44.7249" lon="6.92481">
        <ele>2530.139</ele>
        <time>2018-03-28T11:49:42Z</time>
      </trkpt>
      <trkpt lat="44.72487" lon="6.92482">
        <ele>2530.341</ele>
        <time>2018-03-28T11:49:45Z</time>
      </trkpt>
      <trkpt lat="44.72484" lon="6.92483">
        <ele>2529.974</ele>
        <time>2018-03-28T11:49:59Z</time>
      </trkpt>
      <trkpt lat="44.72474" lon="6.92484">
        <ele>2527.86</ele>
        <time>2018-03-28T11:50:51Z</time>
      </trkpt>
      <trkpt lat="44.72466" lon="6.92469">
        <ele>2524.747</ele>
        <time>2018-03-28T11:50:55Z</time>
      </trkpt>
      <trkpt lat="44.72456" lon="6.92462">
        <ele>2521.005</ele>
        <time>2018-03-28T11:50:58Z</time>
      </trkpt>
      <trkpt lat="44.72454" lon="6.92456">
        <ele>2520.999</ele>
        <time>2018-03-28T11:50:59Z</time>
      </trkpt>
      <trkpt lat="44.72448" lon="6.92446">
        <ele>2516.147</ele>
        <time>2018-03-28T11:51:01Z</time>
      </trkpt>
      <trkpt lat="44.72444" lon="6.92442">
        <ele>2516.141</ele>
        <time>2018-03-28T11:51:02Z</time>
      </trkpt>
      <trkpt lat="44.7244" lon="6.92428">
        <ele>2514.11</ele>
        <time>2018-03-28T11:51:04Z</time>
      </trkpt>
      <trkpt lat="44.72435" lon="6.92417">
        <ele>2512.451</ele>
        <time>2018-03-28T11:51:06Z</time>
      </trkpt>
      <trkpt lat="44.72428" lon="6.92409">
        <ele>2509.084</ele>
        <time>2018-03-28T11:51:08Z</time>
      </trkpt>
      <trkpt lat="44.72425" lon="6.92403">
        <ele>2509.079</ele>
        <time>2018-03-28T11:51:09Z</time>
      </trkpt>
      <trkpt lat="44.72419" lon="6.92392">
        <ele>2505.965</ele>
        <time>2018-03-28T11:51:11Z</time>
      </trkpt>
      <trkpt lat="44.72413" lon="6.9238">
        <ele>2503.785</ele>
        <time>2018-03-28T11:51:13Z</time>
      </trkpt>
      <trkpt lat="44.72411" lon="6.92373">
        <ele>2501.575</ele>
        <time>2018-03-28T11:51:14Z</time>
      </trkpt>
      <trkpt lat="44.72402" lon="6.92365">
        <ele>2497.344</ele>
        <time>2018-03-28T11:51:16Z</time>
      </trkpt>
      <trkpt lat="44.72397" lon="6.92354">
        <ele>2496.655</ele>
        <time>2018-03-28T11:51:18Z</time>
      </trkpt>
      <trkpt lat="44.72395" lon="6.92346">
        <ele>2495.542</ele>
        <time>2018-03-28T11:51:19Z</time>
      </trkpt>
      <trkpt lat="44.72383" lon="6.92331">
        <ele>2494.313</ele>
        <time>2018-03-28T11:51:22Z</time>
      </trkpt>
      <trkpt lat="44.7238" lon="6.92324">
        <ele>2491.439</ele>
        <time>2018-03-28T11:51:23Z</time>
      </trkpt>
      <trkpt lat="44.7237" lon="6.92309">
        <ele>2486.919</ele>
        <time>2018-03-28T11:51:26Z</time>
      </trkpt>
      <trkpt lat="44.72351" lon="6.92308">
        <ele>2481.532</ele>
        <time>2018-03-28T11:51:32Z</time>
      </trkpt>
      <trkpt lat="44.72345" lon="6.92297">
        <ele>2480.772</ele>
        <time>2018-03-28T11:52:32Z</time>
      </trkpt>
      <trkpt lat="44.72346" lon="6.92291">
        <ele>2480.503</ele>
        <time>2018-03-28T11:52:33Z</time>
      </trkpt>
      <trkpt lat="44.72348" lon="6.9228">
        <ele>2480.78</ele>
        <time>2018-03-28T11:52:35Z</time>
      </trkpt>
      <trkpt lat="44.7234" lon="6.92267">
        <ele>2476.8</ele>
        <time>2018-03-28T11:52:39Z</time>
      </trkpt>
      <trkpt lat="44.72339" lon="6.92257">
        <ele>2475.121</ele>
        <time>2018-03-28T11:52:41Z</time>
      </trkpt>
      <trkpt lat="44.72332" lon="6.9225">
        <ele>2473.41</ele>
        <time>2018-03-28T11:52:43Z</time>
      </trkpt>
      <trkpt lat="44.7233" lon="6.92245">
        <ele>2469.476</ele>
        <time>2018-03-28T11:52:44Z</time>
      </trkpt>
      <trkpt lat="44.7232" lon="6.92232">
        <ele>2463.343</ele>
        <time>2018-03-28T11:52:48Z</time>
      </trkpt>
      <trkpt lat="44.72315" lon="6.92211">
        <ele>2455.781</ele>
        <time>2018-03-28T11:52:52Z</time>
      </trkpt>
      <trkpt lat="44.72314" lon="6.92205">
        <ele>2455.781</ele>
        <time>2018-03-28T11:52:53Z</time>
      </trkpt>
      <trkpt lat="44.72309" lon="6.92199">
        <ele>2451.298</ele>
        <time>2018-03-28T11:52:54Z</time>
      </trkpt>
      <trkpt lat="44.72309" lon="6.92192">
        <ele>2451.298</ele>
        <time>2018-03-28T11:52:55Z</time>
      </trkpt>
      <trkpt lat="44.7231" lon="6.92186">
        <ele>2446.832</ele>
        <time>2018-03-28T11:52:56Z</time>
      </trkpt>
      <trkpt lat="44.72308" lon="6.92182">
        <ele>2446.832</ele>
        <time>2018-03-28T11:52:57Z</time>
      </trkpt>
      <trkpt lat="44.723" lon="6.92176">
        <ele>2441.207</ele>
        <time>2018-03-28T11:52:59Z</time>
      </trkpt>
      <trkpt lat="44.723" lon="6.92168">
        <ele>2441.208</ele>
        <time>2018-03-28T11:53:00Z</time>
      </trkpt>
      <trkpt lat="44.72294" lon="6.9216">
        <ele>2438.404</ele>
        <time>2018-03-28T11:53:02Z</time>
      </trkpt>
      <trkpt lat="44.72291" lon="6.92155">
        <ele>2434.452</ele>
        <time>2018-03-28T11:53:03Z</time>
      </trkpt>
      <trkpt lat="44.72291" lon="6.92148">
        <ele>2434.453</ele>
        <time>2018-03-28T11:53:04Z</time>
      </trkpt>
      <trkpt lat="44.72286" lon="6.92133">
        <ele>2429.213</ele>
        <time>2018-03-28T11:53:07Z</time>
      </trkpt>
      <trkpt lat="44.72281" lon="6.92133">
        <ele>2425.977</ele>
        <time>2018-03-28T11:53:08Z</time>
      </trkpt>
      <trkpt lat="44.72277" lon="6.92134">
        <ele>2425.98</ele>
        <time>2018-03-28T11:53:09Z</time>
      </trkpt>
      <trkpt lat="44.7227" lon="6.92131">
        <ele>2423.868</ele>
        <time>2018-03-28T11:53:11Z</time>
      </trkpt>
      <trkpt lat="44.72269" lon="6.92102">
        <ele>2414.593</ele>
        <time>2018-03-28T11:53:55Z</time>
      </trkpt>
      <trkpt lat="44.72266" lon="6.92083">
        <ele>2409.998</ele>
        <time>2018-03-28T11:53:59Z</time>
      </trkpt>
      <trkpt lat="44.72264" lon="6.92079">
        <ele>2409.992</ele>
        <time>2018-03-28T11:54:00Z</time>
      </trkpt>
      <trkpt lat="44.72257" lon="6.92059">
        <ele>2404.663</ele>
        <time>2018-03-28T11:54:04Z</time>
      </trkpt>
      <trkpt lat="44.72254" lon="6.92054">
        <ele>2401.32</ele>
        <time>2018-03-28T11:54:05Z</time>
      </trkpt>
      <trkpt lat="44.72249" lon="6.92044">
        <ele>2398.616</ele>
        <time>2018-03-28T11:54:07Z</time>
      </trkpt>
      <trkpt lat="44.72245" lon="6.92041">
        <ele>2394.243</ele>
        <time>2018-03-28T11:54:08Z</time>
      </trkpt>
      <trkpt lat="44.72243" lon="6.92034">
        <ele>2394.237</ele>
        <time>2018-03-28T11:54:09Z</time>
      </trkpt>
      <trkpt lat="44.72238" lon="6.92024">
        <ele>2391.258</ele>
        <time>2018-03-28T11:54:11Z</time>
      </trkpt>
      <trkpt lat="44.72236" lon="6.92017">
        <ele>2387.184</ele>
        <time>2018-03-28T11:54:12Z</time>
      </trkpt>
      <trkpt lat="44.72233" lon="6.92011">
        <ele>2384.321</ele>
        <time>2018-03-28T11:54:13Z</time>
      </trkpt>
      <trkpt lat="44.72224" lon="6.91991">
        <ele>2380.644</ele>
        <time>2018-03-28T11:54:16Z</time>
      </trkpt>
      <trkpt lat="44.7222" lon="6.91985">
        <ele>2377.633</ele>
        <time>2018-03-28T11:54:17Z</time>
      </trkpt>
      <trkpt lat="44.72212" lon="6.91971">
        <ele>2374.209</ele>
        <time>2018-03-28T11:54:19Z</time>
      </trkpt>
      <trkpt lat="44.72205" lon="6.91954">
        <ele>2371.538</ele>
        <time>2018-03-28T11:54:21Z</time>
      </trkpt>
      <trkpt lat="44.72201" lon="6.91947">
        <ele>2366.696</ele>
        <time>2018-03-28T11:54:23Z</time>
      </trkpt>
      <trkpt lat="44.72199" lon="6.91946">
        <ele>2364.027</ele>
        <time>2018-03-28T11:54:36Z</time>
      </trkpt>
      <trkpt lat="44.72183" lon="6.91931">
        <ele>2360.75</ele>
        <time>2018-03-28T11:54:42Z</time>
      </trkpt>
      <trkpt lat="44.72173" lon="6.91934">
        <ele>2359.105</ele>
        <time>2018-03-28T11:54:44Z</time>
      </trkpt>
      <trkpt lat="44.72166" lon="6.91935">
        <ele>2358.311</ele>
        <time>2018-03-28T11:54:45Z</time>
      </trkpt>
      <trkpt lat="44.7215" lon="6.91937">
        <ele>2357.888</ele>
        <time>2018-03-28T11:54:54Z</time>
      </trkpt>
      <trkpt lat="44.72148" lon="6.91932">
        <ele>2357.097</ele>
        <time>2018-03-28T11:57:23Z</time>
      </trkpt>
      <trkpt lat="44.7215" lon="6.91904">
        <ele>2356.034</ele>
        <time>2018-03-28T11:57:28Z</time>
      </trkpt>
      <trkpt lat="44.72143" lon="6.91887">
        <ele>2351.512</ele>
        <time>2018-03-28T11:57:31Z</time>
      </trkpt>
      <trkpt lat="44.72139" lon="6.91887">
        <ele>2349.813</ele>
        <time>2018-03-28T11:57:32Z</time>
      </trkpt>
      <trkpt lat="44.72128" lon="6.91889">
        <ele>2349.823</ele>
        <time>2018-03-28T11:57:35Z</time>
      </trkpt>
      <trkpt lat="44.72118" lon="6.91874">
        <ele>2346.116</ele>
        <time>2018-03-28T11:57:39Z</time>
      </trkpt>
      <trkpt lat="44.7212" lon="6.91869">
        <ele>2346.109</ele>
        <time>2018-03-28T11:57:40Z</time>
      </trkpt>
      <trkpt lat="44.72122" lon="6.91865">
        <ele>2344.359</ele>
        <time>2018-03-28T11:57:43Z</time>
      </trkpt>
      <trkpt lat="44.72117" lon="6.91857">
        <ele>2342.562</ele>
        <time>2018-03-28T11:57:47Z</time>
      </trkpt>
      <trkpt lat="44.72113" lon="6.9185">
        <ele>2340.677</ele>
        <time>2018-03-28T11:57:49Z</time>
      </trkpt>
      <trkpt lat="44.72112" lon="6.91842">
        <ele>2338.499</ele>
        <time>2018-03-28T11:57:51Z</time>
      </trkpt>
      <trkpt lat="44.72109" lon="6.91826">
        <ele>2333.251</ele>
        <time>2018-03-28T11:57:54Z</time>
      </trkpt>
      <trkpt lat="44.72103" lon="6.9182">
        <ele>2330.069</ele>
        <time>2018-03-28T11:57:56Z</time>
      </trkpt>
      <trkpt lat="44.72101" lon="6.91816">
        <ele>2326.022</ele>
        <time>2018-03-28T11:57:57Z</time>
      </trkpt>
      <trkpt lat="44.721" lon="6.91811">
        <ele>2326.015</ele>
        <time>2018-03-28T11:57:58Z</time>
      </trkpt>
      <trkpt lat="44.72095" lon="6.91812">
        <ele>2319.017</ele>
        <time>2018-03-28T11:58:00Z</time>
      </trkpt>
      <trkpt lat="44.72092" lon="6.91811">
        <ele>2319.011</ele>
        <time>2018-03-28T11:58:01Z</time>
      </trkpt>
      <trkpt lat="44.72094" lon="6.91802">
        <ele>2315.687</ele>
        <time>2018-03-28T11:58:04Z</time>
      </trkpt>
      <trkpt lat="44.72085" lon="6.91796">
        <ele>2313.276</ele>
        <time>2018-03-28T11:58:21Z</time>
      </trkpt>
      <trkpt lat="44.7208" lon="6.91783">
        <ele>2307.46</ele>
        <time>2018-03-28T11:58:24Z</time>
      </trkpt>
      <trkpt lat="44.72077" lon="6.9178">
        <ele>2303.392</ele>
        <time>2018-03-28T11:58:25Z</time>
      </trkpt>
      <trkpt lat="44.72077" lon="6.91773">
        <ele>2303.39</ele>
        <time>2018-03-28T11:58:26Z</time>
      </trkpt>
      <trkpt lat="44.72079" lon="6.91768">
        <ele>2298.725</ele>
        <time>2018-03-28T11:58:27Z</time>
      </trkpt>
      <trkpt lat="44.72082" lon="6.91765">
        <ele>2298.722</ele>
        <time>2018-03-28T11:58:28Z</time>
      </trkpt>
      <trkpt lat="44.72087" lon="6.91761">
        <ele>2296.793</ele>
        <time>2018-03-28T11:58:30Z</time>
      </trkpt>
      <trkpt lat="44.72087" lon="6.91751">
        <ele>2293.871</ele>
        <time>2018-03-28T11:58:53Z</time>
      </trkpt>
      <trkpt lat="44.72081" lon="6.91742">
        <ele>2290.285</ele>
        <time>2018-03-28T11:58:56Z</time>
      </trkpt>
      <trkpt lat="44.7208" lon="6.91732">
        <ele>2285.472</ele>
        <time>2018-03-28T11:58:58Z</time>
      </trkpt>
      <trkpt lat="44.72079" lon="6.91728">
        <ele>2285.472</ele>
        <time>2018-03-28T11:58:59Z</time>
      </trkpt>
      <trkpt lat="44.7208" lon="6.91722">
        <ele>2280.977</ele>
        <time>2018-03-28T11:59:00Z</time>
      </trkpt>
      <trkpt lat="44.72076" lon="6.91719">
        <ele>2280.978</ele>
        <time>2018-03-28T11:59:01Z</time>
      </trkpt>
      <trkpt lat="44.72072" lon="6.91718">
        <ele>2277.409</ele>
        <time>2018-03-28T11:59:02Z</time>
      </trkpt>
      <trkpt lat="44.7207" lon="6.91714">
        <ele>2277.411</ele>
        <time>2018-03-28T11:59:03Z</time>
      </trkpt>
      <trkpt lat="44.72072" lon="6.91709">
        <ele>2273.128</ele>
        <time>2018-03-28T11:59:04Z</time>
      </trkpt>
      <trkpt lat="44.72081" lon="6.91687">
        <ele>2270.67</ele>
        <time>2018-03-28T11:59:08Z</time>
      </trkpt>
      <trkpt lat="44.72085" lon="6.91678">
        <ele>2269.547</ele>
        <time>2018-03-28T11:59:11Z</time>
      </trkpt>
      <trkpt lat="44.72077" lon="6.91669">
        <ele>2266.983</ele>
        <time>2018-03-28T11:59:15Z</time>
      </trkpt>
      <trkpt lat="44.72075" lon="6.91656">
        <ele>2264.918</ele>
        <time>2018-03-28T11:59:17Z</time>
      </trkpt>
      <trkpt lat="44.72071" lon="6.91642">
        <ele>2263.554</ele>
        <time>2018-03-28T11:59:19Z</time>
      </trkpt>
      <trkpt lat="44.72058" lon="6.91638">
        <ele>2257.717</ele>
        <time>2018-03-28T11:59:21Z</time>
      </trkpt>
      <trkpt lat="44.72053" lon="6.91631">
        <ele>2257.72</ele>
        <time>2018-03-28T11:59:22Z</time>
      </trkpt>
      <trkpt lat="44.72036" lon="6.91615">
        <ele>2251.332</ele>
        <time>2018-03-28T11:59:25Z</time>
      </trkpt>
      <trkpt lat="44.7203" lon="6.91617">
        <ele>2251.335</ele>
        <time>2018-03-28T11:59:26Z</time>
      </trkpt>
      <trkpt lat="44.72024" lon="6.91613">
        <ele>2248.271</ele>
        <time>2018-03-28T11:59:27Z</time>
      </trkpt>
      <trkpt lat="44.72021" lon="6.91604">
        <ele>2246.575</ele>
        <time>2018-03-28T11:59:29Z</time>
      </trkpt>
      <trkpt lat="44.72021" lon="6.91599">
        <ele>2245.922</ele>
        <time>2018-03-28T12:03:20Z</time>
      </trkpt>
      <trkpt lat="44.72009" lon="6.9159">
        <ele>2240.616</ele>
        <time>2018-03-28T12:03:24Z</time>
      </trkpt>
      <trkpt lat="44.72006" lon="6.91579">
        <ele>2237.205</ele>
        <time>2018-03-28T12:03:26Z</time>
      </trkpt>
      <trkpt lat="44.72007" lon="6.91571">
        <ele>2237.204</ele>
        <time>2018-03-28T12:03:27Z</time>
      </trkpt>
      <trkpt lat="44.72003" lon="6.91561">
        <ele>2235.347</ele>
        <time>2018-03-28T12:03:29Z</time>
      </trkpt>
      <trkpt lat="44.71999" lon="6.91557">
        <ele>2231.643</ele>
        <time>2018-03-28T12:03:30Z</time>
      </trkpt>
      <trkpt lat="44.71996" lon="6.91551">
        <ele>2228.505</ele>
        <time>2018-03-28T12:03:31Z</time>
      </trkpt>
      <trkpt lat="44.71996" lon="6.91542">
        <ele>2228.506</ele>
        <time>2018-03-28T12:03:32Z</time>
      </trkpt>
      <trkpt lat="44.71988" lon="6.91528">
        <ele>2226.676</ele>
        <time>2018-03-28T12:03:34Z</time>
      </trkpt>
      <trkpt lat="44.71981" lon="6.91529">
        <ele>2222.653</ele>
        <time>2018-03-28T12:03:35Z</time>
      </trkpt>
      <trkpt lat="44.71964" lon="6.9152">
        <ele>2215.027</ele>
        <time>2018-03-28T12:03:38Z</time>
      </trkpt>
      <trkpt lat="44.71962" lon="6.91511">
        <ele>2215.029</ele>
        <time>2018-03-28T12:03:39Z</time>
      </trkpt>
      <trkpt lat="44.71961" lon="6.91502">
        <ele>2211.393</ele>
        <time>2018-03-28T12:03:40Z</time>
      </trkpt>
      <trkpt lat="44.71956" lon="6.91494">
        <ele>2211.395</ele>
        <time>2018-03-28T12:03:41Z</time>
      </trkpt>
      <trkpt lat="44.7195" lon="6.91494">
        <ele>2210.157</ele>
        <time>2018-03-28T12:03:42Z</time>
      </trkpt>
      <trkpt lat="44.71932" lon="6.91486">
        <ele>2200.151</ele>
        <time>2018-03-28T12:03:45Z</time>
      </trkpt>
      <trkpt lat="44.7193" lon="6.91477">
        <ele>2200.155</ele>
        <time>2018-03-28T12:03:46Z</time>
      </trkpt>
      <trkpt lat="44.71921" lon="6.91462">
        <ele>2198.884</ele>
        <time>2018-03-28T12:03:48Z</time>
      </trkpt>
      <trkpt lat="44.71909" lon="6.91461">
        <ele>2196.26</ele>
        <time>2018-03-28T12:03:50Z</time>
      </trkpt>
      <trkpt lat="44.71905" lon="6.91457">
        <ele>2192.722</ele>
        <time>2018-03-28T12:03:51Z</time>
      </trkpt>
      <trkpt lat="44.719" lon="6.91441">
        <ele>2191.165</ele>
        <time>2018-03-28T12:03:53Z</time>
      </trkpt>
      <trkpt lat="44.71894" lon="6.91439">
        <ele>2188.505</ele>
        <time>2018-03-28T12:03:55Z</time>
      </trkpt>
      <trkpt lat="44.7189" lon="6.91443">
        <ele>2186.339</ele>
        <time>2018-03-28T12:05:11Z</time>
      </trkpt>
      <trkpt lat="44.7188" lon="6.91434">
        <ele>2184.649</ele>
        <time>2018-03-28T12:05:14Z</time>
      </trkpt>
      <trkpt lat="44.71878" lon="6.91427">
        <ele>2181.612</ele>
        <time>2018-03-28T12:05:15Z</time>
      </trkpt>
      <trkpt lat="44.71875" lon="6.91424">
        <ele>2181.612</ele>
        <time>2018-03-28T12:05:16Z</time>
      </trkpt>
      <trkpt lat="44.71871" lon="6.91422">
        <ele>2178.57</ele>
        <time>2018-03-28T12:05:17Z</time>
      </trkpt>
      <trkpt lat="44.71867" lon="6.91417">
        <ele>2178.572</ele>
        <time>2018-03-28T12:05:18Z</time>
      </trkpt>
      <trkpt lat="44.71864" lon="6.91409">
        <ele>2173.942</ele>
        <time>2018-03-28T12:05:19Z</time>
      </trkpt>
      <trkpt lat="44.71855" lon="6.91401">
        <ele>2171.101</ele>
        <time>2018-03-28T12:05:21Z</time>
      </trkpt>
      <trkpt lat="44.71833" lon="6.91387">
        <ele>2165.149</ele>
        <time>2018-03-28T12:05:25Z</time>
      </trkpt>
      <trkpt lat="44.71833" lon="6.91379">
        <ele>2164.916</ele>
        <time>2018-03-28T12:05:26Z</time>
      </trkpt>
      <trkpt lat="44.71834" lon="6.91363">
        <ele>2163.713</ele>
        <time>2018-03-28T12:05:28Z</time>
      </trkpt>
      <trkpt lat="44.7184" lon="6.91346">
        <ele>2160.146</ele>
        <time>2018-03-28T12:05:32Z</time>
      </trkpt>
      <trkpt lat="44.71838" lon="6.91342">
        <ele>2158.695</ele>
        <time>2018-03-28T12:05:36Z</time>
      </trkpt>
      <trkpt lat="44.71834" lon="6.91339">
        <ele>2157.459</ele>
        <time>2018-03-28T12:05:59Z</time>
      </trkpt>
      <trkpt lat="44.71836" lon="6.91336">
        <ele>2157.415</ele>
        <time>2018-03-28T12:06:38Z</time>
      </trkpt>
      <trkpt lat="44.71841" lon="6.9131">
        <ele>2155.151</ele>
        <time>2018-03-28T12:06:51Z</time>
      </trkpt>
      <trkpt lat="44.71848" lon="6.91302">
        <ele>2152.342</ele>
        <time>2018-03-28T12:06:53Z</time>
      </trkpt>
      <trkpt lat="44.71841" lon="6.91292">
        <ele>2148.081</ele>
        <time>2018-03-28T12:06:57Z</time>
      </trkpt>
      <trkpt lat="44.71836" lon="6.91291">
        <ele>2148.077</ele>
        <time>2018-03-28T12:06:58Z</time>
      </trkpt>
      <trkpt lat="44.71833" lon="6.91287">
        <ele>2144.046</ele>
        <time>2018-03-28T12:06:59Z</time>
      </trkpt>
      <trkpt lat="44.71834" lon="6.9128">
        <ele>2144.042</ele>
        <time>2018-03-28T12:07:00Z</time>
      </trkpt>
      <trkpt lat="44.71837" lon="6.91274">
        <ele>2141.116</ele>
        <time>2018-03-28T12:07:01Z</time>
      </trkpt>
      <trkpt lat="44.71845" lon="6.91257">
        <ele>2140.972</ele>
        <time>2018-03-28T12:07:05Z</time>
      </trkpt>
      <trkpt lat="44.71838" lon="6.91247">
        <ele>2135.845</ele>
        <time>2018-03-28T12:07:08Z</time>
      </trkpt>
      <trkpt lat="44.71837" lon="6.91242">
        <ele>2135.838</ele>
        <time>2018-03-28T12:07:09Z</time>
      </trkpt>
      <trkpt lat="44.71834" lon="6.91235">
        <ele>2128.696</ele>
        <time>2018-03-28T12:07:11Z</time>
      </trkpt>
      <trkpt lat="44.71827" lon="6.91234">
        <ele>2123.925</ele>
        <time>2018-03-28T12:07:13Z</time>
      </trkpt>
      <trkpt lat="44.71827" lon="6.91228">
        <ele>2123.917</ele>
        <time>2018-03-28T12:07:14Z</time>
      </trkpt>
      <trkpt lat="44.71827" lon="6.91222">
        <ele>2119.152</ele>
        <time>2018-03-28T12:07:15Z</time>
      </trkpt>
      <trkpt lat="44.71824" lon="6.9122">
        <ele>2119.145</ele>
        <time>2018-03-28T12:07:16Z</time>
      </trkpt>
      <trkpt lat="44.71818" lon="6.91216">
        <ele>2114.723</ele>
        <time>2018-03-28T12:07:17Z</time>
      </trkpt>
      <trkpt lat="44.71816" lon="6.9121">
        <ele>2111.024</ele>
        <time>2018-03-28T12:07:18Z</time>
      </trkpt>
      <trkpt lat="44.71817" lon="6.91203">
        <ele>2111.016</ele>
        <time>2018-03-28T12:07:19Z</time>
      </trkpt>
      <trkpt lat="44.71817" lon="6.91198">
        <ele>2107.349</ele>
        <time>2018-03-28T12:07:20Z</time>
      </trkpt>
      <trkpt lat="44.71816" lon="6.91196">
        <ele>2107.342</ele>
        <time>2018-03-28T12:07:21Z</time>
      </trkpt>
      <trkpt lat="44.7181" lon="6.91191">
        <ele>2100.138</ele>
        <time>2018-03-28T12:07:25Z</time>
      </trkpt>
      <trkpt lat="44.718" lon="6.91182">
        <ele>2097.767</ele>
        <time>2018-03-28T12:08:24Z</time>
      </trkpt>
      <trkpt lat="44.71795" lon="6.91172">
        <ele>2094.842</ele>
        <time>2018-03-28T12:08:26Z</time>
      </trkpt>
      <trkpt lat="44.71792" lon="6.91158">
        <ele>2092.125</ele>
        <time>2018-03-28T12:08:28Z</time>
      </trkpt>
      <trkpt lat="44.7179" lon="6.91152">
        <ele>2088.621</ele>
        <time>2018-03-28T12:08:29Z</time>
      </trkpt>
      <trkpt lat="44.71787" lon="6.91144">
        <ele>2088.615</ele>
        <time>2018-03-28T12:08:30Z</time>
      </trkpt>
      <trkpt lat="44.71786" lon="6.91135">
        <ele>2085.112</ele>
        <time>2018-03-28T12:08:31Z</time>
      </trkpt>
      <trkpt lat="44.71784" lon="6.91127">
        <ele>2080.12</ele>
        <time>2018-03-28T12:08:32Z</time>
      </trkpt>
      <trkpt lat="44.71779" lon="6.91122">
        <ele>2080.114</ele>
        <time>2018-03-28T12:08:33Z</time>
      </trkpt>
      <trkpt lat="44.71774" lon="6.91116">
        <ele>2076.243</ele>
        <time>2018-03-28T12:08:34Z</time>
      </trkpt>
      <trkpt lat="44.71762" lon="6.91105">
        <ele>2074.911</ele>
        <time>2018-03-28T12:08:36Z</time>
      </trkpt>
      <trkpt lat="44.71741" lon="6.9106">
        <ele>2072.991</ele>
        <time>2018-03-28T12:08:40Z</time>
      </trkpt>
      <trkpt lat="44.71742" lon="6.91057">
        <ele>2073.055</ele>
        <time>2018-03-28T12:08:41Z</time>
      </trkpt>
      <trkpt lat="44.71759" lon="6.91017">
        <ele>2070.856</ele>
        <time>2018-03-28T12:08:49Z</time>
      </trkpt>
      <trkpt lat="44.71772" lon="6.90945">
        <ele>2066.841</ele>
        <time>2018-03-28T12:09:02Z</time>
      </trkpt>
      <trkpt lat="44.7178" lon="6.90915">
        <ele>2066.351</ele>
        <time>2018-03-28T12:09:10Z</time>
      </trkpt>
      <trkpt lat="44.71791" lon="6.90869">
        <ele>2064.36</ele>
        <time>2018-03-28T12:09:22Z</time>
      </trkpt>
      <trkpt lat="44.71799" lon="6.90807">
        <ele>2061.83</ele>
        <time>2018-03-28T12:09:38Z</time>
      </trkpt>
      <trkpt lat="44.71807" lon="6.90746">
        <ele>2058.811</ele>
        <time>2018-03-28T12:09:51Z</time>
      </trkpt>
      <trkpt lat="44.71816" lon="6.90675">
        <ele>2055.36</ele>
        <time>2018-03-28T12:10:06Z</time>
      </trkpt>
      <trkpt lat="44.71838" lon="6.90605">
        <ele>2052.602</ele>
        <time>2018-03-28T12:10:24Z</time>
      </trkpt>
      <trkpt lat="44.71863" lon="6.90547">
        <ele>2050.716</ele>
        <time>2018-03-28T12:10:44Z</time>
      </trkpt>
      <trkpt lat="44.71883" lon="6.90501">
        <ele>2048.891</ele>
        <time>2018-03-28T12:11:01Z</time>
      </trkpt>
      <trkpt lat="44.71892" lon="6.9048">
        <ele>2047.037</ele>
        <time>2018-03-28T12:11:14Z</time>
      </trkpt>
      <trkpt lat="44.71896" lon="6.90466">
        <ele>2045.251</ele>
        <time>2018-03-28T12:11:55Z</time>
      </trkpt>
      <trkpt lat="44.71893" lon="6.90439">
        <ele>2045.278</ele>
        <time>2018-03-28T12:12:13Z</time>
      </trkpt>
      <trkpt lat="44.71898" lon="6.90427">
        <ele>2042.88</ele>
        <time>2018-03-28T12:18:37Z</time>
      </trkpt>
    </trkseg>
  </trk>
</gpx>